<?xml version="1.0" encoding="UTF-8" standalone="no" ?>
<gpx xmlns="http://www.topografix.com/GPX/1/1" xmlns:xsi="http://www.w3.org/2001/XMLSchema-instance" xsi:schemaLocation="http://www.topografix.com/GPX/1/1 http://www.topografix.com/GPX/1/1/gpx.xsd" version="1.1" creator="VisuGPX - https://www.visugpx.com">
  <metadata>
    <name>Balaruc-Intermed</name>
    <desc><![CDATA[test mobithau]]></desc>
  </metadata>
  <trk>
    <name><![CDATA[balaruc]]></name>
    <trkseg>
      <trkpt lat="43.44297" lon="3.69051">
        <ele>-0.3433837890625</ele>
        <time>2011-05-12T07:54:26Z</time>
      </trkpt>
      <trkpt lat="43.44296" lon="3.69052">
        <ele>-0.8240966796875</ele>
        <time>2011-05-12T07:54:27Z</time>
      </trkpt>
      <trkpt lat="43.44296" lon="3.69052">
        <ele>-0.8240966796875</ele>
        <time>2011-05-12T07:54:28Z</time>
      </trkpt>
      <trkpt lat="43.44294" lon="3.69056">
        <ele>-0.8240966796875</ele>
        <time>2011-05-12T07:54:51Z</time>
      </trkpt>
      <trkpt lat="43.44303" lon="3.69054">
        <ele>-0.8240966796875</ele>
        <time>2011-05-12T07:54:55Z</time>
      </trkpt>
      <trkpt lat="43.44311" lon="3.69062">
        <ele>-0.8240966796875</ele>
        <time>2011-05-12T07:55:00Z</time>
      </trkpt>
      <trkpt lat="43.44314" lon="3.69071">
        <ele>-0.3433837890625</ele>
        <time>2011-05-12T07:55:03Z</time>
      </trkpt>
      <trkpt lat="43.44328" lon="3.69095">
        <ele>0.137451171875</ele>
        <time>2011-05-12T07:55:11Z</time>
      </trkpt>
      <trkpt lat="43.44342" lon="3.69119">
        <ele>0.137451171875</ele>
        <time>2011-05-12T07:55:19Z</time>
      </trkpt>
      <trkpt lat="43.44355" lon="3.69129">
        <ele>-0.3433837890625</ele>
        <time>2011-05-12T07:55:25Z</time>
      </trkpt>
      <trkpt lat="43.44368" lon="3.69124">
        <ele>-0.8240966796875</ele>
        <time>2011-05-12T07:55:31Z</time>
      </trkpt>
      <trkpt lat="43.44384" lon="3.69107">
        <ele>0.137451171875</ele>
        <time>2011-05-12T07:55:39Z</time>
      </trkpt>
      <trkpt lat="43.44398" lon="3.69092">
        <ele>0.137451171875</ele>
        <time>2011-05-12T07:55:46Z</time>
      </trkpt>
      <trkpt lat="43.44417" lon="3.69074">
        <ele>0.137451171875</ele>
        <time>2011-05-12T07:55:54Z</time>
      </trkpt>
      <trkpt lat="43.44442" lon="3.69051">
        <ele>-0.3433837890625</ele>
        <time>2011-05-12T07:56:04Z</time>
      </trkpt>
      <trkpt lat="43.44456" lon="3.69037">
        <ele>-0.3433837890625</ele>
        <time>2011-05-12T07:56:10Z</time>
      </trkpt>
      <trkpt lat="43.44469" lon="3.69025">
        <ele>0.137451171875</ele>
        <time>2011-05-12T07:56:16Z</time>
      </trkpt>
      <trkpt lat="43.44478" lon="3.69006">
        <ele>0.6180419921875</ele>
        <time>2011-05-12T07:56:22Z</time>
      </trkpt>
      <trkpt lat="43.44478" lon="3.68987">
        <ele>0.137451171875</ele>
        <time>2011-05-12T07:56:27Z</time>
      </trkpt>
      <trkpt lat="43.44476" lon="3.68968">
        <ele>0.6180419921875</ele>
        <time>2011-05-12T07:56:32Z</time>
      </trkpt>
      <trkpt lat="43.44469" lon="3.68948">
        <ele>0.137451171875</ele>
        <time>2011-05-12T07:56:38Z</time>
      </trkpt>
      <trkpt lat="43.44455" lon="3.68927">
        <ele>0.6180419921875</ele>
        <time>2011-05-12T07:56:45Z</time>
      </trkpt>
      <trkpt lat="43.44446" lon="3.68906">
        <ele>0.137451171875</ele>
        <time>2011-05-12T07:56:51Z</time>
      </trkpt>
      <trkpt lat="43.44437" lon="3.68889">
        <ele>-0.3433837890625</ele>
        <time>2011-05-12T07:56:56Z</time>
      </trkpt>
      <trkpt lat="43.4443" lon="3.68873">
        <ele>-0.3433837890625</ele>
        <time>2011-05-12T07:57:01Z</time>
      </trkpt>
      <trkpt lat="43.44431" lon="3.6886">
        <ele>-1.3046875</ele>
        <time>2011-05-12T07:57:06Z</time>
      </trkpt>
      <trkpt lat="43.44423" lon="3.68854">
        <ele>-0.3433837890625</ele>
        <time>2011-05-12T07:57:14Z</time>
      </trkpt>
      <trkpt lat="43.44422" lon="3.68854">
        <ele>-0.3433837890625</ele>
        <time>2011-05-12T07:57:15Z</time>
      </trkpt>
      <trkpt lat="43.44417" lon="3.68853">
        <ele>-0.3433837890625</ele>
        <time>2011-05-12T07:57:51Z</time>
      </trkpt>
      <trkpt lat="43.44416" lon="3.6885">
        <ele>0.6180419921875</ele>
        <time>2011-05-12T07:57:54Z</time>
      </trkpt>
      <trkpt lat="43.44416" lon="3.6885">
        <ele>0.137451171875</ele>
        <time>2011-05-12T07:58:14Z</time>
      </trkpt>
      <trkpt lat="43.44416" lon="3.68849">
        <ele>0.137451171875</ele>
        <time>2011-05-12T07:58:16Z</time>
      </trkpt>
      <trkpt lat="43.44415" lon="3.68848">
        <ele>1.0986328125</ele>
        <time>2011-05-12T07:58:54Z</time>
      </trkpt>
      <trkpt lat="43.44426" lon="3.68852">
        <ele>1.0986328125</ele>
        <time>2011-05-12T07:58:59Z</time>
      </trkpt>
      <trkpt lat="43.44433" lon="3.68846">
        <ele>0.6180419921875</ele>
        <time>2011-05-12T07:59:02Z</time>
      </trkpt>
      <trkpt lat="43.44445" lon="3.68837">
        <ele>0.6180419921875</ele>
        <time>2011-05-12T07:59:08Z</time>
      </trkpt>
      <trkpt lat="43.44451" lon="3.6883">
        <ele>0.137451171875</ele>
        <time>2011-05-12T07:59:11Z</time>
      </trkpt>
      <trkpt lat="43.4445" lon="3.68807">
        <ele>0.137451171875</ele>
        <time>2011-05-12T07:59:17Z</time>
      </trkpt>
      <trkpt lat="43.44454" lon="3.68788">
        <ele>0.137451171875</ele>
        <time>2011-05-12T07:59:23Z</time>
      </trkpt>
      <trkpt lat="43.44467" lon="3.6877">
        <ele>0.137451171875</ele>
        <time>2011-05-12T07:59:30Z</time>
      </trkpt>
      <trkpt lat="43.44469" lon="3.68769">
        <ele>0.137451171875</ele>
        <time>2011-05-12T07:59:31Z</time>
      </trkpt>
      <trkpt lat="43.4447" lon="3.68751">
        <ele>0.137451171875</ele>
        <time>2011-05-12T07:59:37Z</time>
      </trkpt>
      <trkpt lat="43.44462" lon="3.68723">
        <ele>0.137451171875</ele>
        <time>2011-05-12T07:59:46Z</time>
      </trkpt>
      <trkpt lat="43.44456" lon="3.68705">
        <ele>0.137451171875</ele>
        <time>2011-05-12T07:59:53Z</time>
      </trkpt>
      <trkpt lat="43.44453" lon="3.68686">
        <ele>0.137451171875</ele>
        <time>2011-05-12T07:59:59Z</time>
      </trkpt>
      <trkpt lat="43.44445" lon="3.68666">
        <ele>0.6180419921875</ele>
        <time>2011-05-12T08:00:08Z</time>
      </trkpt>
      <trkpt lat="43.44444" lon="3.68664">
        <ele>0.137451171875</ele>
        <time>2011-05-12T08:00:09Z</time>
      </trkpt>
      <trkpt lat="43.44447" lon="3.68655">
        <ele>0.6180419921875</ele>
        <time>2011-05-12T08:00:14Z</time>
      </trkpt>
      <trkpt lat="43.44448" lon="3.68653">
        <ele>1.0986328125</ele>
        <time>2011-05-12T08:00:17Z</time>
      </trkpt>
      <trkpt lat="43.44452" lon="3.6865">
        <ele>0.6180419921875</ele>
        <time>2011-05-12T08:00:55Z</time>
      </trkpt>
      <trkpt lat="43.44459" lon="3.68642">
        <ele>0.6180419921875</ele>
        <time>2011-05-12T08:00:58Z</time>
      </trkpt>
      <trkpt lat="43.4447" lon="3.68618">
        <ele>1.0986328125</ele>
        <time>2011-05-12T08:01:04Z</time>
      </trkpt>
      <trkpt lat="43.4447" lon="3.68589">
        <ele>1.0986328125</ele>
        <time>2011-05-12T08:01:10Z</time>
      </trkpt>
      <trkpt lat="43.44471" lon="3.68564">
        <ele>0.6180419921875</ele>
        <time>2011-05-12T08:01:16Z</time>
      </trkpt>
      <trkpt lat="43.44477" lon="3.68533">
        <ele>0.6180419921875</ele>
        <time>2011-05-12T08:01:23Z</time>
      </trkpt>
      <trkpt lat="43.44488" lon="3.68507">
        <ele>0.6180419921875</ele>
        <time>2011-05-12T08:01:30Z</time>
      </trkpt>
      <trkpt lat="43.44509" lon="3.68484">
        <ele>0.6180419921875</ele>
        <time>2011-05-12T08:01:39Z</time>
      </trkpt>
      <trkpt lat="43.44511" lon="3.68481">
        <ele>0.6180419921875</ele>
        <time>2011-05-12T08:01:40Z</time>
      </trkpt>
      <trkpt lat="43.44517" lon="3.68466">
        <ele>1.0986328125</ele>
        <time>2011-05-12T08:01:47Z</time>
      </trkpt>
      <trkpt lat="43.44517" lon="3.68466">
        <ele>1.0986328125</ele>
        <time>2011-05-12T08:01:48Z</time>
      </trkpt>
      <trkpt lat="43.44519" lon="3.68465">
        <ele>0.6180419921875</ele>
        <time>2011-05-12T08:01:57Z</time>
      </trkpt>
      <trkpt lat="43.44525" lon="3.6845">
        <ele>0.6180419921875</ele>
        <time>2011-05-12T08:02:02Z</time>
      </trkpt>
      <trkpt lat="43.44537" lon="3.68427">
        <ele>1.0986328125</ele>
        <time>2011-05-12T08:02:09Z</time>
      </trkpt>
      <trkpt lat="43.44539" lon="3.68423">
        <ele>0.6180419921875</ele>
        <time>2011-05-12T08:02:11Z</time>
      </trkpt>
      <trkpt lat="43.44543" lon="3.68416">
        <ele>1.0986328125</ele>
        <time>2011-05-12T08:02:15Z</time>
      </trkpt>
      <trkpt lat="43.44554" lon="3.68408">
        <ele>1.579345703125</ele>
        <time>2011-05-12T08:02:21Z</time>
      </trkpt>
      <trkpt lat="43.44555" lon="3.68407">
        <ele>1.0986328125</ele>
        <time>2011-05-12T08:02:23Z</time>
      </trkpt>
      <trkpt lat="43.44559" lon="3.68404">
        <ele>2.5406494140625</ele>
        <time>2011-05-12T08:03:38Z</time>
      </trkpt>
      <trkpt lat="43.44559" lon="3.68403">
        <ele>2.5406494140625</ele>
        <time>2011-05-12T08:03:39Z</time>
      </trkpt>
      <trkpt lat="43.44557" lon="3.68405">
        <ele>2.5406494140625</ele>
        <time>2011-05-12T08:03:47Z</time>
      </trkpt>
      <trkpt lat="43.44547" lon="3.68411">
        <ele>3.021240234375</ele>
        <time>2011-05-12T08:03:52Z</time>
      </trkpt>
      <trkpt lat="43.4454" lon="3.68424">
        <ele>3.501953125</ele>
        <time>2011-05-12T08:03:57Z</time>
      </trkpt>
      <trkpt lat="43.44538" lon="3.68426">
        <ele>3.021240234375</ele>
        <time>2011-05-12T08:04:01Z</time>
      </trkpt>
      <trkpt lat="43.44538" lon="3.68427">
        <ele>2.5406494140625</ele>
        <time>2011-05-12T08:04:06Z</time>
      </trkpt>
      <trkpt lat="43.44534" lon="3.68442">
        <ele>3.021240234375</ele>
        <time>2011-05-12T08:04:10Z</time>
      </trkpt>
      <trkpt lat="43.44524" lon="3.6847">
        <ele>3.021240234375</ele>
        <time>2011-05-12T08:04:16Z</time>
      </trkpt>
      <trkpt lat="43.44501" lon="3.68494">
        <ele>3.021240234375</ele>
        <time>2011-05-12T08:04:22Z</time>
      </trkpt>
      <trkpt lat="43.44497" lon="3.68498">
        <ele>3.021240234375</ele>
        <time>2011-05-12T08:04:23Z</time>
      </trkpt>
      <trkpt lat="43.44481" lon="3.68526">
        <ele>2.5406494140625</ele>
        <time>2011-05-12T08:04:30Z</time>
      </trkpt>
      <trkpt lat="43.44476" lon="3.68541">
        <ele>2.5406494140625</ele>
        <time>2011-05-12T08:04:35Z</time>
      </trkpt>
      <trkpt lat="43.44471" lon="3.68559">
        <ele>3.021240234375</ele>
        <time>2011-05-12T08:04:41Z</time>
      </trkpt>
      <trkpt lat="43.4447" lon="3.68564">
        <ele>2.06005859375</ele>
        <time>2011-05-12T08:04:43Z</time>
      </trkpt>
      <trkpt lat="43.44458" lon="3.68576">
        <ele>3.021240234375</ele>
        <time>2011-05-12T08:04:49Z</time>
      </trkpt>
      <trkpt lat="43.44446" lon="3.68574">
        <ele>2.06005859375</ele>
        <time>2011-05-12T08:04:53Z</time>
      </trkpt>
      <trkpt lat="43.44431" lon="3.68579">
        <ele>2.5406494140625</ele>
        <time>2011-05-12T08:04:59Z</time>
      </trkpt>
      <trkpt lat="43.44423" lon="3.68595">
        <ele>2.5406494140625</ele>
        <time>2011-05-12T08:05:04Z</time>
      </trkpt>
      <trkpt lat="43.4442" lon="3.68611">
        <ele>2.5406494140625</ele>
        <time>2011-05-12T08:05:09Z</time>
      </trkpt>
      <trkpt lat="43.44421" lon="3.68622">
        <ele>2.06005859375</ele>
        <time>2011-05-12T08:05:15Z</time>
      </trkpt>
      <trkpt lat="43.44421" lon="3.68623">
        <ele>2.06005859375</ele>
        <time>2011-05-12T08:05:17Z</time>
      </trkpt>
      <trkpt lat="43.44418" lon="3.68623">
        <ele>2.5406494140625</ele>
        <time>2011-05-12T08:05:36Z</time>
      </trkpt>
      <trkpt lat="43.4442" lon="3.68626">
        <ele>2.5406494140625</ele>
        <time>2011-05-12T08:05:39Z</time>
      </trkpt>
      <trkpt lat="43.44422" lon="3.68625">
        <ele>2.5406494140625</ele>
        <time>2011-05-12T08:06:21Z</time>
      </trkpt>
      <trkpt lat="43.44423" lon="3.68624">
        <ele>2.06005859375</ele>
        <time>2011-05-12T08:06:23Z</time>
      </trkpt>
      <trkpt lat="43.44422" lon="3.68622">
        <ele>2.5406494140625</ele>
        <time>2011-05-12T08:06:29Z</time>
      </trkpt>
      <trkpt lat="43.44422" lon="3.68621">
        <ele>2.06005859375</ele>
        <time>2011-05-12T08:06:30Z</time>
      </trkpt>
      <trkpt lat="43.44414" lon="3.68613">
        <ele>3.021240234375</ele>
        <time>2011-05-12T08:06:34Z</time>
      </trkpt>
      <trkpt lat="43.44403" lon="3.68617">
        <ele>2.06005859375</ele>
        <time>2011-05-12T08:06:39Z</time>
      </trkpt>
      <trkpt lat="43.444" lon="3.68619">
        <ele>1.579345703125</ele>
        <time>2011-05-12T08:06:44Z</time>
      </trkpt>
      <trkpt lat="43.444" lon="3.6862">
        <ele>2.5406494140625</ele>
        <time>2011-05-12T08:06:51Z</time>
      </trkpt>
      <trkpt lat="43.44396" lon="3.68622">
        <ele>0.6180419921875</ele>
        <time>2011-05-12T08:06:56Z</time>
      </trkpt>
      <trkpt lat="43.44395" lon="3.68624">
        <ele>2.06005859375</ele>
        <time>2011-05-12T08:07:06Z</time>
      </trkpt>
      <trkpt lat="43.44395" lon="3.68623">
        <ele>1.0986328125</ele>
        <time>2011-05-12T08:07:07Z</time>
      </trkpt>
      <trkpt lat="43.44397" lon="3.68621">
        <ele>2.5406494140625</ele>
        <time>2011-05-12T08:09:36Z</time>
      </trkpt>
      <trkpt lat="43.44398" lon="3.68621">
        <ele>2.5406494140625</ele>
        <time>2011-05-12T08:09:37Z</time>
      </trkpt>
      <trkpt lat="43.44398" lon="3.68621">
        <ele>3.021240234375</ele>
        <time>2011-05-12T08:09:47Z</time>
      </trkpt>
      <trkpt lat="43.444" lon="3.68612">
        <ele>3.021240234375</ele>
        <time>2011-05-12T08:09:50Z</time>
      </trkpt>
      <trkpt lat="43.44399" lon="3.68609">
        <ele>2.5406494140625</ele>
        <time>2011-05-12T08:09:51Z</time>
      </trkpt>
      <trkpt lat="43.44387" lon="3.68591">
        <ele>3.021240234375</ele>
        <time>2011-05-12T08:09:59Z</time>
      </trkpt>
      <trkpt lat="43.44378" lon="3.68586">
        <ele>2.5406494140625</ele>
        <time>2011-05-12T08:10:05Z</time>
      </trkpt>
      <trkpt lat="43.44378" lon="3.68585">
        <ele>2.5406494140625</ele>
        <time>2011-05-12T08:10:07Z</time>
      </trkpt>
      <trkpt lat="43.44377" lon="3.68585">
        <ele>2.5406494140625</ele>
        <time>2011-05-12T08:10:16Z</time>
      </trkpt>
      <trkpt lat="43.44377" lon="3.68586">
        <ele>2.06005859375</ele>
        <time>2011-05-12T08:10:17Z</time>
      </trkpt>
      <trkpt lat="43.44378" lon="3.68585">
        <ele>1.579345703125</ele>
        <time>2011-05-12T08:10:42Z</time>
      </trkpt>
      <trkpt lat="43.44377" lon="3.68584">
        <ele>2.5406494140625</ele>
        <time>2011-05-12T08:10:43Z</time>
      </trkpt>
      <trkpt lat="43.44373" lon="3.68575">
        <ele>3.021240234375</ele>
        <time>2011-05-12T08:10:47Z</time>
      </trkpt>
      <trkpt lat="43.4437" lon="3.68565">
        <ele>3.021240234375</ele>
        <time>2011-05-12T08:10:50Z</time>
      </trkpt>
      <trkpt lat="43.44353" lon="3.6854">
        <ele>3.501953125</ele>
        <time>2011-05-12T08:10:59Z</time>
      </trkpt>
      <trkpt lat="43.44337" lon="3.68522">
        <ele>3.501953125</ele>
        <time>2011-05-12T08:11:06Z</time>
      </trkpt>
      <trkpt lat="43.44319" lon="3.68504">
        <ele>3.501953125</ele>
        <time>2011-05-12T08:11:14Z</time>
      </trkpt>
      <trkpt lat="43.4431" lon="3.68495">
        <ele>3.982666015625</ele>
        <time>2011-05-12T08:11:20Z</time>
      </trkpt>
      <trkpt lat="43.44302" lon="3.6849">
        <ele>3.501953125</ele>
        <time>2011-05-12T08:11:28Z</time>
      </trkpt>
      <trkpt lat="43.443" lon="3.68489">
        <ele>3.501953125</ele>
        <time>2011-05-12T08:11:32Z</time>
      </trkpt>
      <trkpt lat="43.44299" lon="3.68489">
        <ele>3.501953125</ele>
        <time>2011-05-12T08:11:39Z</time>
      </trkpt>
      <trkpt lat="43.44294" lon="3.68485">
        <ele>3.021240234375</ele>
        <time>2011-05-12T08:11:43Z</time>
      </trkpt>
      <trkpt lat="43.44284" lon="3.6848">
        <ele>3.021240234375</ele>
        <time>2011-05-12T08:11:49Z</time>
      </trkpt>
      <trkpt lat="43.44279" lon="3.68479">
        <ele>3.501953125</ele>
        <time>2011-05-12T08:11:54Z</time>
      </trkpt>
      <trkpt lat="43.44278" lon="3.68479">
        <ele>3.021240234375</ele>
        <time>2011-05-12T08:11:57Z</time>
      </trkpt>
      <trkpt lat="43.44272" lon="3.68475">
        <ele>3.021240234375</ele>
        <time>2011-05-12T08:12:00Z</time>
      </trkpt>
      <trkpt lat="43.44266" lon="3.68473">
        <ele>3.501953125</ele>
        <time>2011-05-12T08:12:04Z</time>
      </trkpt>
      <trkpt lat="43.44257" lon="3.6847">
        <ele>3.021240234375</ele>
        <time>2011-05-12T08:12:11Z</time>
      </trkpt>
      <trkpt lat="43.44245" lon="3.68466">
        <ele>3.501953125</ele>
        <time>2011-05-12T08:12:17Z</time>
      </trkpt>
      <trkpt lat="43.44231" lon="3.68462">
        <ele>3.021240234375</ele>
        <time>2011-05-12T08:12:23Z</time>
      </trkpt>
      <trkpt lat="43.44217" lon="3.68457">
        <ele>3.021240234375</ele>
        <time>2011-05-12T08:12:29Z</time>
      </trkpt>
      <trkpt lat="43.44201" lon="3.6845">
        <ele>3.021240234375</ele>
        <time>2011-05-12T08:12:36Z</time>
      </trkpt>
      <trkpt lat="43.44183" lon="3.68442">
        <ele>3.021240234375</ele>
        <time>2011-05-12T08:12:44Z</time>
      </trkpt>
      <trkpt lat="43.44178" lon="3.68439">
        <ele>3.501953125</ele>
        <time>2011-05-12T08:12:46Z</time>
      </trkpt>
      <trkpt lat="43.44172" lon="3.68441">
        <ele>3.021240234375</ele>
        <time>2011-05-12T08:12:51Z</time>
      </trkpt>
      <trkpt lat="43.44171" lon="3.6844">
        <ele>3.021240234375</ele>
        <time>2011-05-12T08:12:54Z</time>
      </trkpt>
      <trkpt lat="43.4417" lon="3.68428">
        <ele>3.021240234375</ele>
        <time>2011-05-12T08:12:58Z</time>
      </trkpt>
      <trkpt lat="43.4416" lon="3.68416">
        <ele>3.501953125</ele>
        <time>2011-05-12T08:13:03Z</time>
      </trkpt>
      <trkpt lat="43.4415" lon="3.68406">
        <ele>3.501953125</ele>
        <time>2011-05-12T08:13:09Z</time>
      </trkpt>
      <trkpt lat="43.44147" lon="3.68402">
        <ele>3.021240234375</ele>
        <time>2011-05-12T08:13:11Z</time>
      </trkpt>
      <trkpt lat="43.44132" lon="3.68382">
        <ele>3.501953125</ele>
        <time>2011-05-12T08:13:20Z</time>
      </trkpt>
      <trkpt lat="43.44118" lon="3.68366">
        <ele>3.501953125</ele>
        <time>2011-05-12T08:13:27Z</time>
      </trkpt>
      <trkpt lat="43.44101" lon="3.68346">
        <ele>3.501953125</ele>
        <time>2011-05-12T08:13:35Z</time>
      </trkpt>
      <trkpt lat="43.44097" lon="3.68338">
        <ele>3.021240234375</ele>
        <time>2011-05-12T08:13:38Z</time>
      </trkpt>
      <trkpt lat="43.44083" lon="3.6832">
        <ele>3.021240234375</ele>
        <time>2011-05-12T08:13:47Z</time>
      </trkpt>
      <trkpt lat="43.44074" lon="3.68306">
        <ele>3.021240234375</ele>
        <time>2011-05-12T08:13:55Z</time>
      </trkpt>
      <trkpt lat="43.44065" lon="3.6829">
        <ele>2.5406494140625</ele>
        <time>2011-05-12T08:14:03Z</time>
      </trkpt>
      <trkpt lat="43.4406" lon="3.68285">
        <ele>3.021240234375</ele>
        <time>2011-05-12T08:14:07Z</time>
      </trkpt>
      <trkpt lat="43.44042" lon="3.68266">
        <ele>3.021240234375</ele>
        <time>2011-05-12T08:14:15Z</time>
      </trkpt>
      <trkpt lat="43.44027" lon="3.68248">
        <ele>3.501953125</ele>
        <time>2011-05-12T08:14:23Z</time>
      </trkpt>
      <trkpt lat="43.44019" lon="3.6824">
        <ele>3.021240234375</ele>
        <time>2011-05-12T08:14:29Z</time>
      </trkpt>
      <trkpt lat="43.44018" lon="3.68239">
        <ele>2.5406494140625</ele>
        <time>2011-05-12T08:14:32Z</time>
      </trkpt>
      <trkpt lat="43.44009" lon="3.68228">
        <ele>2.5406494140625</ele>
        <time>2011-05-12T08:14:37Z</time>
      </trkpt>
      <trkpt lat="43.43995" lon="3.68212">
        <ele>2.5406494140625</ele>
        <time>2011-05-12T08:14:45Z</time>
      </trkpt>
      <trkpt lat="43.43989" lon="3.68206">
        <ele>3.021240234375</ele>
        <time>2011-05-12T08:14:48Z</time>
      </trkpt>
      <trkpt lat="43.43992" lon="3.68194">
        <ele>2.5406494140625</ele>
        <time>2011-05-12T08:14:53Z</time>
      </trkpt>
      <trkpt lat="43.43996" lon="3.68179">
        <ele>2.5406494140625</ele>
        <time>2011-05-12T08:14:57Z</time>
      </trkpt>
      <trkpt lat="43.43991" lon="3.68167">
        <ele>3.021240234375</ele>
        <time>2011-05-12T08:15:01Z</time>
      </trkpt>
      <trkpt lat="43.43981" lon="3.68154">
        <ele>3.021240234375</ele>
        <time>2011-05-12T08:15:07Z</time>
      </trkpt>
      <trkpt lat="43.43977" lon="3.68151">
        <ele>3.501953125</ele>
        <time>2011-05-12T08:15:11Z</time>
      </trkpt>
      <trkpt lat="43.43977" lon="3.6815">
        <ele>3.501953125</ele>
        <time>2011-05-12T08:15:20Z</time>
      </trkpt>
      <trkpt lat="43.43976" lon="3.68149">
        <ele>3.501953125</ele>
        <time>2011-05-12T08:15:22Z</time>
      </trkpt>
      <trkpt lat="43.43975" lon="3.68149">
        <ele>3.021240234375</ele>
        <time>2011-05-12T08:15:29Z</time>
      </trkpt>
      <trkpt lat="43.43971" lon="3.68141">
        <ele>3.501953125</ele>
        <time>2011-05-12T08:15:33Z</time>
      </trkpt>
      <trkpt lat="43.43955" lon="3.68116">
        <ele>3.021240234375</ele>
        <time>2011-05-12T08:15:42Z</time>
      </trkpt>
      <trkpt lat="43.43943" lon="3.68102">
        <ele>3.501953125</ele>
        <time>2011-05-12T08:15:48Z</time>
      </trkpt>
      <trkpt lat="43.43936" lon="3.68091">
        <ele>3.021240234375</ele>
        <time>2011-05-12T08:15:53Z</time>
      </trkpt>
      <trkpt lat="43.43928" lon="3.68078">
        <ele>3.501953125</ele>
        <time>2011-05-12T08:15:59Z</time>
      </trkpt>
      <trkpt lat="43.43912" lon="3.68057">
        <ele>2.5406494140625</ele>
        <time>2011-05-12T08:16:08Z</time>
      </trkpt>
      <trkpt lat="43.43899" lon="3.68038">
        <ele>2.5406494140625</ele>
        <time>2011-05-12T08:16:16Z</time>
      </trkpt>
      <trkpt lat="43.43887" lon="3.68021">
        <ele>3.021240234375</ele>
        <time>2011-05-12T08:16:24Z</time>
      </trkpt>
      <trkpt lat="43.43882" lon="3.68017">
        <ele>2.5406494140625</ele>
        <time>2011-05-12T08:16:29Z</time>
      </trkpt>
      <trkpt lat="43.43882" lon="3.68016">
        <ele>2.5406494140625</ele>
        <time>2011-05-12T08:16:34Z</time>
      </trkpt>
      <trkpt lat="43.43879" lon="3.68011">
        <ele>3.021240234375</ele>
        <time>2011-05-12T08:16:36Z</time>
      </trkpt>
      <trkpt lat="43.43869" lon="3.67999">
        <ele>3.501953125</ele>
        <time>2011-05-12T08:16:44Z</time>
      </trkpt>
      <trkpt lat="43.43863" lon="3.6799">
        <ele>3.501953125</ele>
        <time>2011-05-12T08:16:50Z</time>
      </trkpt>
      <trkpt lat="43.43861" lon="3.67984">
        <ele>3.501953125</ele>
        <time>2011-05-12T08:16:53Z</time>
      </trkpt>
      <trkpt lat="43.43854" lon="3.67975">
        <ele>3.501953125</ele>
        <time>2011-05-12T08:16:58Z</time>
      </trkpt>
      <trkpt lat="43.43847" lon="3.67966">
        <ele>3.501953125</ele>
        <time>2011-05-12T08:17:04Z</time>
      </trkpt>
      <trkpt lat="43.43835" lon="3.6795">
        <ele>3.501953125</ele>
        <time>2011-05-12T08:17:10Z</time>
      </trkpt>
      <trkpt lat="43.43823" lon="3.67933">
        <ele>3.021240234375</ele>
        <time>2011-05-12T08:17:17Z</time>
      </trkpt>
      <trkpt lat="43.4381" lon="3.67914">
        <ele>3.982666015625</ele>
        <time>2011-05-12T08:17:25Z</time>
      </trkpt>
      <trkpt lat="43.43794" lon="3.67893">
        <ele>3.501953125</ele>
        <time>2011-05-12T08:17:34Z</time>
      </trkpt>
      <trkpt lat="43.43785" lon="3.67879">
        <ele>3.501953125</ele>
        <time>2011-05-12T08:17:40Z</time>
      </trkpt>
      <trkpt lat="43.43773" lon="3.67882">
        <ele>3.982666015625</ele>
        <time>2011-05-12T08:17:46Z</time>
      </trkpt>
      <trkpt lat="43.43772" lon="3.67884">
        <ele>3.982666015625</ele>
        <time>2011-05-12T08:17:48Z</time>
      </trkpt>
      <trkpt lat="43.43766" lon="3.67877">
        <ele>3.501953125</ele>
        <time>2011-05-12T08:17:52Z</time>
      </trkpt>
      <trkpt lat="43.43766" lon="3.67869">
        <ele>3.501953125</ele>
        <time>2011-05-12T08:17:56Z</time>
      </trkpt>
      <trkpt lat="43.43768" lon="3.67862">
        <ele>3.501953125</ele>
        <time>2011-05-12T08:18:01Z</time>
      </trkpt>
      <trkpt lat="43.43759" lon="3.67852">
        <ele>3.501953125</ele>
        <time>2011-05-12T08:18:07Z</time>
      </trkpt>
      <trkpt lat="43.43752" lon="3.67856">
        <ele>3.501953125</ele>
        <time>2011-05-12T08:18:12Z</time>
      </trkpt>
      <trkpt lat="43.43752" lon="3.67856">
        <ele>3.501953125</ele>
        <time>2011-05-12T08:18:14Z</time>
      </trkpt>
      <trkpt lat="43.43752" lon="3.67855">
        <ele>3.501953125</ele>
        <time>2011-05-12T08:18:21Z</time>
      </trkpt>
      <trkpt lat="43.43753" lon="3.67855">
        <ele>3.982666015625</ele>
        <time>2011-05-12T08:18:22Z</time>
      </trkpt>
      <trkpt lat="43.43756" lon="3.67851">
        <ele>3.501953125</ele>
        <time>2011-05-12T08:18:26Z</time>
      </trkpt>
      <trkpt lat="43.43747" lon="3.67828">
        <ele>3.982666015625</ele>
        <time>2011-05-12T08:18:33Z</time>
      </trkpt>
      <trkpt lat="43.43728" lon="3.67798">
        <ele>4.94384765625</ele>
        <time>2011-05-12T08:18:41Z</time>
      </trkpt>
      <trkpt lat="43.43708" lon="3.67768">
        <ele>3.982666015625</ele>
        <time>2011-05-12T08:18:49Z</time>
      </trkpt>
      <trkpt lat="43.43691" lon="3.67744">
        <ele>4.94384765625</ele>
        <time>2011-05-12T08:18:55Z</time>
      </trkpt>
      <trkpt lat="43.43672" lon="3.67715">
        <ele>3.982666015625</ele>
        <time>2011-05-12T08:19:02Z</time>
      </trkpt>
      <trkpt lat="43.43658" lon="3.67692">
        <ele>4.4632568359375</ele>
        <time>2011-05-12T08:19:09Z</time>
      </trkpt>
      <trkpt lat="43.43659" lon="3.67684">
        <ele>4.4632568359375</ele>
        <time>2011-05-12T08:19:14Z</time>
      </trkpt>
      <trkpt lat="43.43659" lon="3.67684">
        <ele>4.4632568359375</ele>
        <time>2011-05-12T08:19:15Z</time>
      </trkpt>
      <trkpt lat="43.4366" lon="3.67684">
        <ele>4.4632568359375</ele>
        <time>2011-05-12T08:20:05Z</time>
      </trkpt>
      <trkpt lat="43.43659" lon="3.67686">
        <ele>4.94384765625</ele>
        <time>2011-05-12T08:20:08Z</time>
      </trkpt>
      <trkpt lat="43.43659" lon="3.67686">
        <ele>4.4632568359375</ele>
        <time>2011-05-12T08:20:15Z</time>
      </trkpt>
      <trkpt lat="43.43659" lon="3.67687">
        <ele>4.94384765625</ele>
        <time>2011-05-12T08:20:16Z</time>
      </trkpt>
      <trkpt lat="43.43656" lon="3.67689">
        <ele>4.4632568359375</ele>
        <time>2011-05-12T08:20:20Z</time>
      </trkpt>
      <trkpt lat="43.43656" lon="3.67688">
        <ele>3.982666015625</ele>
        <time>2011-05-12T08:20:22Z</time>
      </trkpt>
      <trkpt lat="43.43648" lon="3.67681">
        <ele>4.4632568359375</ele>
        <time>2011-05-12T08:20:27Z</time>
      </trkpt>
      <trkpt lat="43.43636" lon="3.67664">
        <ele>4.94384765625</ele>
        <time>2011-05-12T08:20:34Z</time>
      </trkpt>
      <trkpt lat="43.43627" lon="3.67654">
        <ele>4.4632568359375</ele>
        <time>2011-05-12T08:20:39Z</time>
      </trkpt>
      <trkpt lat="43.43627" lon="3.67654">
        <ele>4.4632568359375</ele>
        <time>2011-05-12T08:20:40Z</time>
      </trkpt>
      <trkpt lat="43.43626" lon="3.67653">
        <ele>4.4632568359375</ele>
        <time>2011-05-12T08:20:45Z</time>
      </trkpt>
      <trkpt lat="43.43623" lon="3.67647">
        <ele>3.982666015625</ele>
        <time>2011-05-12T08:20:47Z</time>
      </trkpt>
      <trkpt lat="43.43609" lon="3.67626">
        <ele>3.982666015625</ele>
        <time>2011-05-12T08:20:54Z</time>
      </trkpt>
      <trkpt lat="43.43595" lon="3.67601">
        <ele>3.982666015625</ele>
        <time>2011-05-12T08:21:02Z</time>
      </trkpt>
      <trkpt lat="43.43593" lon="3.67597">
        <ele>3.501953125</ele>
        <time>2011-05-12T08:21:04Z</time>
      </trkpt>
      <trkpt lat="43.43595" lon="3.67589">
        <ele>3.982666015625</ele>
        <time>2011-05-12T08:21:08Z</time>
      </trkpt>
      <trkpt lat="43.43597" lon="3.67587">
        <ele>3.982666015625</ele>
        <time>2011-05-12T08:21:11Z</time>
      </trkpt>
      <trkpt lat="43.43597" lon="3.67586">
        <ele>4.4632568359375</ele>
        <time>2011-05-12T08:21:22Z</time>
      </trkpt>
      <trkpt lat="43.43603" lon="3.6758">
        <ele>4.94384765625</ele>
        <time>2011-05-12T08:21:25Z</time>
      </trkpt>
      <trkpt lat="43.43605" lon="3.6756">
        <ele>4.4632568359375</ele>
        <time>2011-05-12T08:21:33Z</time>
      </trkpt>
      <trkpt lat="43.43604" lon="3.67541">
        <ele>4.94384765625</ele>
        <time>2011-05-12T08:21:40Z</time>
      </trkpt>
      <trkpt lat="43.43603" lon="3.67534">
        <ele>4.4632568359375</ele>
        <time>2011-05-12T08:21:45Z</time>
      </trkpt>
      <trkpt lat="43.436" lon="3.67523">
        <ele>4.94384765625</ele>
        <time>2011-05-12T08:21:51Z</time>
      </trkpt>
      <trkpt lat="43.43595" lon="3.67507">
        <ele>4.94384765625</ele>
        <time>2011-05-12T08:21:59Z</time>
      </trkpt>
      <trkpt lat="43.43587" lon="3.67492">
        <ele>5.424560546875</ele>
        <time>2011-05-12T08:22:07Z</time>
      </trkpt>
      <trkpt lat="43.43577" lon="3.67472">
        <ele>5.424560546875</ele>
        <time>2011-05-12T08:22:15Z</time>
      </trkpt>
      <trkpt lat="43.43568" lon="3.67453">
        <ele>5.424560546875</ele>
        <time>2011-05-12T08:22:22Z</time>
      </trkpt>
      <trkpt lat="43.43561" lon="3.67429">
        <ele>4.94384765625</ele>
        <time>2011-05-12T08:22:29Z</time>
      </trkpt>
      <trkpt lat="43.43552" lon="3.674">
        <ele>4.94384765625</ele>
        <time>2011-05-12T08:22:36Z</time>
      </trkpt>
      <trkpt lat="43.43543" lon="3.6737">
        <ele>4.94384765625</ele>
        <time>2011-05-12T08:22:44Z</time>
      </trkpt>
      <trkpt lat="43.43541" lon="3.67368">
        <ele>4.94384765625</ele>
        <time>2011-05-12T08:22:46Z</time>
      </trkpt>
      <trkpt lat="43.43539" lon="3.6736">
        <ele>5.424560546875</ele>
        <time>2011-05-12T08:22:52Z</time>
      </trkpt>
      <trkpt lat="43.43539" lon="3.67354">
        <ele>4.94384765625</ele>
        <time>2011-05-12T08:22:55Z</time>
      </trkpt>
      <trkpt lat="43.43539" lon="3.67351">
        <ele>4.94384765625</ele>
        <time>2011-05-12T08:22:59Z</time>
      </trkpt>
      <trkpt lat="43.43539" lon="3.6735">
        <ele>4.94384765625</ele>
        <time>2011-05-12T08:23:10Z</time>
      </trkpt>
      <trkpt lat="43.43539" lon="3.67341">
        <ele>4.94384765625</ele>
        <time>2011-05-12T08:23:14Z</time>
      </trkpt>
      <trkpt lat="43.43541" lon="3.67324">
        <ele>4.4632568359375</ele>
        <time>2011-05-12T08:23:20Z</time>
      </trkpt>
      <trkpt lat="43.43542" lon="3.67303">
        <ele>4.4632568359375</ele>
        <time>2011-05-12T08:23:27Z</time>
      </trkpt>
      <trkpt lat="43.43547" lon="3.67287">
        <ele>4.94384765625</ele>
        <time>2011-05-12T08:23:34Z</time>
      </trkpt>
      <trkpt lat="43.43557" lon="3.67275">
        <ele>4.4632568359375</ele>
        <time>2011-05-12T08:23:42Z</time>
      </trkpt>
      <trkpt lat="43.43565" lon="3.67267">
        <ele>4.94384765625</ele>
        <time>2011-05-12T08:23:49Z</time>
      </trkpt>
      <trkpt lat="43.43565" lon="3.67265">
        <ele>4.94384765625</ele>
        <time>2011-05-12T08:23:53Z</time>
      </trkpt>
      <trkpt lat="43.43563" lon="3.67266">
        <ele>5.9052734375</ele>
        <time>2011-05-12T08:25:22Z</time>
      </trkpt>
      <trkpt lat="43.43563" lon="3.67271">
        <ele>5.424560546875</ele>
        <time>2011-05-12T08:25:25Z</time>
      </trkpt>
      <trkpt lat="43.43568" lon="3.67273">
        <ele>5.424560546875</ele>
        <time>2011-05-12T08:25:28Z</time>
      </trkpt>
      <trkpt lat="43.43584" lon="3.67282">
        <ele>5.9052734375</ele>
        <time>2011-05-12T08:25:37Z</time>
      </trkpt>
      <trkpt lat="43.43596" lon="3.67288">
        <ele>5.9052734375</ele>
        <time>2011-05-12T08:25:45Z</time>
      </trkpt>
      <trkpt lat="43.43611" lon="3.67289">
        <ele>6.3858642578125</ele>
        <time>2011-05-12T08:25:52Z</time>
      </trkpt>
      <trkpt lat="43.43628" lon="3.67291">
        <ele>5.424560546875</ele>
        <time>2011-05-12T08:25:59Z</time>
      </trkpt>
      <trkpt lat="43.43646" lon="3.67298">
        <ele>4.94384765625</ele>
        <time>2011-05-12T08:26:07Z</time>
      </trkpt>
      <trkpt lat="43.4366" lon="3.67305">
        <ele>4.94384765625</ele>
        <time>2011-05-12T08:26:15Z</time>
      </trkpt>
      <trkpt lat="43.43676" lon="3.67311">
        <ele>5.424560546875</ele>
        <time>2011-05-12T08:26:23Z</time>
      </trkpt>
      <trkpt lat="43.43692" lon="3.67307">
        <ele>5.424560546875</ele>
        <time>2011-05-12T08:26:30Z</time>
      </trkpt>
      <trkpt lat="43.43713" lon="3.67304">
        <ele>4.94384765625</ele>
        <time>2011-05-12T08:26:39Z</time>
      </trkpt>
      <trkpt lat="43.43728" lon="3.67301">
        <ele>4.94384765625</ele>
        <time>2011-05-12T08:26:47Z</time>
      </trkpt>
      <trkpt lat="43.43746" lon="3.67295">
        <ele>5.424560546875</ele>
        <time>2011-05-12T08:26:55Z</time>
      </trkpt>
      <trkpt lat="43.43765" lon="3.67288">
        <ele>4.94384765625</ele>
        <time>2011-05-12T08:27:03Z</time>
      </trkpt>
      <trkpt lat="43.43783" lon="3.67281">
        <ele>5.424560546875</ele>
        <time>2011-05-12T08:27:11Z</time>
      </trkpt>
      <trkpt lat="43.43795" lon="3.67278">
        <ele>5.424560546875</ele>
        <time>2011-05-12T08:27:17Z</time>
      </trkpt>
      <trkpt lat="43.43811" lon="3.67278">
        <ele>4.4632568359375</ele>
        <time>2011-05-12T08:27:25Z</time>
      </trkpt>
      <trkpt lat="43.43812" lon="3.67278">
        <ele>4.94384765625</ele>
        <time>2011-05-12T08:27:26Z</time>
      </trkpt>
      <trkpt lat="43.43823" lon="3.67274">
        <ele>4.94384765625</ele>
        <time>2011-05-12T08:27:32Z</time>
      </trkpt>
      <trkpt lat="43.43846" lon="3.67257">
        <ele>4.94384765625</ele>
        <time>2011-05-12T08:27:41Z</time>
      </trkpt>
      <trkpt lat="43.43859" lon="3.67239">
        <ele>4.4632568359375</ele>
        <time>2011-05-12T08:27:48Z</time>
      </trkpt>
      <trkpt lat="43.43867" lon="3.67223">
        <ele>5.424560546875</ele>
        <time>2011-05-12T08:27:54Z</time>
      </trkpt>
      <trkpt lat="43.43874" lon="3.67209">
        <ele>4.94384765625</ele>
        <time>2011-05-12T08:28:00Z</time>
      </trkpt>
      <trkpt lat="43.43876" lon="3.67205">
        <ele>4.94384765625</ele>
        <time>2011-05-12T08:28:04Z</time>
      </trkpt>
      <trkpt lat="43.43876" lon="3.67206">
        <ele>5.424560546875</ele>
        <time>2011-05-12T08:28:15Z</time>
      </trkpt>
      <trkpt lat="43.43877" lon="3.67206">
        <ele>4.4632568359375</ele>
        <time>2011-05-12T08:28:17Z</time>
      </trkpt>
      <trkpt lat="43.43878" lon="3.67207">
        <ele>4.94384765625</ele>
        <time>2011-05-12T08:28:21Z</time>
      </trkpt>
      <trkpt lat="43.43881" lon="3.67213">
        <ele>4.94384765625</ele>
        <time>2011-05-12T08:28:24Z</time>
      </trkpt>
      <trkpt lat="43.43888" lon="3.67235">
        <ele>4.4632568359375</ele>
        <time>2011-05-12T08:28:32Z</time>
      </trkpt>
      <trkpt lat="43.43894" lon="3.67253">
        <ele>4.4632568359375</ele>
        <time>2011-05-12T08:28:39Z</time>
      </trkpt>
      <trkpt lat="43.43896" lon="3.67255">
        <ele>4.4632568359375</ele>
        <time>2011-05-12T08:28:43Z</time>
      </trkpt>
      <trkpt lat="43.43893" lon="3.67254">
        <ele>4.4632568359375</ele>
        <time>2011-05-12T08:29:35Z</time>
      </trkpt>
      <trkpt lat="43.43891" lon="3.67256">
        <ele>4.4632568359375</ele>
        <time>2011-05-12T08:29:39Z</time>
      </trkpt>
      <trkpt lat="43.43894" lon="3.67256">
        <ele>4.4632568359375</ele>
        <time>2011-05-12T08:31:26Z</time>
      </trkpt>
      <trkpt lat="43.43894" lon="3.67254">
        <ele>4.4632568359375</ele>
        <time>2011-05-12T08:31:27Z</time>
      </trkpt>
      <trkpt lat="43.43897" lon="3.67249">
        <ele>4.94384765625</ele>
        <time>2011-05-12T08:31:31Z</time>
      </trkpt>
      <trkpt lat="43.43906" lon="3.67255">
        <ele>4.94384765625</ele>
        <time>2011-05-12T08:31:35Z</time>
      </trkpt>
      <trkpt lat="43.43923" lon="3.67271">
        <ele>4.4632568359375</ele>
        <time>2011-05-12T08:31:44Z</time>
      </trkpt>
      <trkpt lat="43.43934" lon="3.67276">
        <ele>4.4632568359375</ele>
        <time>2011-05-12T08:31:50Z</time>
      </trkpt>
      <trkpt lat="43.43941" lon="3.67277">
        <ele>4.94384765625</ele>
        <time>2011-05-12T08:31:54Z</time>
      </trkpt>
      <trkpt lat="43.43958" lon="3.67276">
        <ele>4.94384765625</ele>
        <time>2011-05-12T08:32:01Z</time>
      </trkpt>
      <trkpt lat="43.43976" lon="3.6727">
        <ele>4.94384765625</ele>
        <time>2011-05-12T08:32:08Z</time>
      </trkpt>
      <trkpt lat="43.43994" lon="3.67272">
        <ele>4.94384765625</ele>
        <time>2011-05-12T08:32:15Z</time>
      </trkpt>
      <trkpt lat="43.44015" lon="3.67271">
        <ele>4.94384765625</ele>
        <time>2011-05-12T08:32:23Z</time>
      </trkpt>
      <trkpt lat="43.44033" lon="3.67267">
        <ele>5.424560546875</ele>
        <time>2011-05-12T08:32:32Z</time>
      </trkpt>
      <trkpt lat="43.44046" lon="3.6727">
        <ele>5.9052734375</ele>
        <time>2011-05-12T08:32:39Z</time>
      </trkpt>
      <trkpt lat="43.44059" lon="3.6728">
        <ele>5.424560546875</ele>
        <time>2011-05-12T08:32:46Z</time>
      </trkpt>
      <trkpt lat="43.4407" lon="3.67302">
        <ele>5.424560546875</ele>
        <time>2011-05-12T08:32:54Z</time>
      </trkpt>
      <trkpt lat="43.44082" lon="3.67315">
        <ele>4.94384765625</ele>
        <time>2011-05-12T08:33:00Z</time>
      </trkpt>
      <trkpt lat="43.44094" lon="3.67324">
        <ele>4.94384765625</ele>
        <time>2011-05-12T08:33:05Z</time>
      </trkpt>
      <trkpt lat="43.44108" lon="3.67332">
        <ele>4.94384765625</ele>
        <time>2011-05-12T08:33:10Z</time>
      </trkpt>
      <trkpt lat="43.44124" lon="3.67337">
        <ele>4.94384765625</ele>
        <time>2011-05-12T08:33:16Z</time>
      </trkpt>
      <trkpt lat="43.44144" lon="3.67343">
        <ele>4.94384765625</ele>
        <time>2011-05-12T08:33:23Z</time>
      </trkpt>
      <trkpt lat="43.44155" lon="3.67348">
        <ele>4.94384765625</ele>
        <time>2011-05-12T08:33:29Z</time>
      </trkpt>
      <trkpt lat="43.44155" lon="3.67348">
        <ele>4.94384765625</ele>
        <time>2011-05-12T08:33:30Z</time>
      </trkpt>
      <trkpt lat="43.44155" lon="3.67348">
        <ele>4.94384765625</ele>
        <time>2011-05-12T08:33:35Z</time>
      </trkpt>
      <trkpt lat="43.4416" lon="3.67352">
        <ele>5.424560546875</ele>
        <time>2011-05-12T08:33:37Z</time>
      </trkpt>
      <trkpt lat="43.4417" lon="3.67357">
        <ele>5.424560546875</ele>
        <time>2011-05-12T08:33:42Z</time>
      </trkpt>
      <trkpt lat="43.44171" lon="3.67357">
        <ele>5.424560546875</ele>
        <time>2011-05-12T08:33:45Z</time>
      </trkpt>
      <trkpt lat="43.4417" lon="3.67358">
        <ele>4.94384765625</ele>
        <time>2011-05-12T08:33:51Z</time>
      </trkpt>
      <trkpt lat="43.44174" lon="3.67358">
        <ele>4.94384765625</ele>
        <time>2011-05-12T08:33:56Z</time>
      </trkpt>
      <trkpt lat="43.44174" lon="3.67358">
        <ele>5.424560546875</ele>
        <time>2011-05-12T08:33:57Z</time>
      </trkpt>
      <trkpt lat="43.44177" lon="3.67358">
        <ele>6.866455078125</ele>
        <time>2011-05-12T08:37:31Z</time>
      </trkpt>
      <trkpt lat="43.44178" lon="3.67359">
        <ele>6.866455078125</ele>
        <time>2011-05-12T08:37:32Z</time>
      </trkpt>
      <trkpt lat="43.44186" lon="3.67361">
        <ele>6.3858642578125</ele>
        <time>2011-05-12T08:37:39Z</time>
      </trkpt>
      <trkpt lat="43.44188" lon="3.67361">
        <ele>6.866455078125</ele>
        <time>2011-05-12T08:37:41Z</time>
      </trkpt>
      <trkpt lat="43.44189" lon="3.67359">
        <ele>6.866455078125</ele>
        <time>2011-05-12T08:38:05Z</time>
      </trkpt>
      <trkpt lat="43.44186" lon="3.67355">
        <ele>6.866455078125</ele>
        <time>2011-05-12T08:38:09Z</time>
      </trkpt>
      <trkpt lat="43.44183" lon="3.67346">
        <ele>6.3858642578125</ele>
        <time>2011-05-12T08:38:23Z</time>
      </trkpt>
      <trkpt lat="43.44181" lon="3.67344">
        <ele>6.866455078125</ele>
        <time>2011-05-12T08:38:26Z</time>
      </trkpt>
      <trkpt lat="43.44185" lon="3.67343">
        <ele>6.866455078125</ele>
        <time>2011-05-12T08:38:43Z</time>
      </trkpt>
      <trkpt lat="43.44198" lon="3.67353">
        <ele>6.866455078125</ele>
        <time>2011-05-12T08:38:49Z</time>
      </trkpt>
      <trkpt lat="43.44205" lon="3.67355">
        <ele>6.866455078125</ele>
        <time>2011-05-12T08:38:54Z</time>
      </trkpt>
      <trkpt lat="43.44212" lon="3.67356">
        <ele>7.34716796875</ele>
        <time>2011-05-12T08:39:01Z</time>
      </trkpt>
      <trkpt lat="43.44213" lon="3.67357">
        <ele>7.34716796875</ele>
        <time>2011-05-12T08:39:03Z</time>
      </trkpt>
      <trkpt lat="43.44222" lon="3.67355">
        <ele>6.3858642578125</ele>
        <time>2011-05-12T08:39:08Z</time>
      </trkpt>
      <trkpt lat="43.44227" lon="3.67354">
        <ele>6.866455078125</ele>
        <time>2011-05-12T08:39:10Z</time>
      </trkpt>
      <trkpt lat="43.44239" lon="3.67356">
        <ele>7.827880859375</ele>
        <time>2011-05-12T08:39:16Z</time>
      </trkpt>
      <trkpt lat="43.44259" lon="3.67353">
        <ele>7.827880859375</ele>
        <time>2011-05-12T08:39:24Z</time>
      </trkpt>
      <trkpt lat="43.4426" lon="3.67352">
        <ele>7.34716796875</ele>
        <time>2011-05-12T08:39:26Z</time>
      </trkpt>
      <trkpt lat="43.44264" lon="3.6735">
        <ele>6.866455078125</ele>
        <time>2011-05-12T08:39:49Z</time>
      </trkpt>
      <trkpt lat="43.44266" lon="3.67349">
        <ele>6.866455078125</ele>
        <time>2011-05-12T08:39:52Z</time>
      </trkpt>
      <trkpt lat="43.44267" lon="3.67349">
        <ele>7.34716796875</ele>
        <time>2011-05-12T08:39:57Z</time>
      </trkpt>
      <trkpt lat="43.44267" lon="3.67349">
        <ele>7.34716796875</ele>
        <time>2011-05-12T08:39:58Z</time>
      </trkpt>
      <trkpt lat="43.44274" lon="3.67348">
        <ele>7.34716796875</ele>
        <time>2011-05-12T08:40:02Z</time>
      </trkpt>
      <trkpt lat="43.4429" lon="3.67349">
        <ele>7.34716796875</ele>
        <time>2011-05-12T08:40:09Z</time>
      </trkpt>
      <trkpt lat="43.44298" lon="3.67351">
        <ele>7.34716796875</ele>
        <time>2011-05-12T08:40:15Z</time>
      </trkpt>
      <trkpt lat="43.44298" lon="3.67352">
        <ele>7.34716796875</ele>
        <time>2011-05-12T08:40:23Z</time>
      </trkpt>
      <trkpt lat="43.44308" lon="3.67354">
        <ele>6.866455078125</ele>
        <time>2011-05-12T08:40:28Z</time>
      </trkpt>
      <trkpt lat="43.44317" lon="3.67354">
        <ele>6.866455078125</ele>
        <time>2011-05-12T08:40:34Z</time>
      </trkpt>
      <trkpt lat="43.44317" lon="3.67354">
        <ele>7.34716796875</ele>
        <time>2011-05-12T08:40:36Z</time>
      </trkpt>
      <trkpt lat="43.44316" lon="3.67353">
        <ele>6.866455078125</ele>
        <time>2011-05-12T08:40:48Z</time>
      </trkpt>
      <trkpt lat="43.44321" lon="3.67352">
        <ele>6.866455078125</ele>
        <time>2011-05-12T08:40:52Z</time>
      </trkpt>
      <trkpt lat="43.44322" lon="3.67352">
        <ele>6.866455078125</ele>
        <time>2011-05-12T08:40:55Z</time>
      </trkpt>
      <trkpt lat="43.44332" lon="3.67353">
        <ele>6.866455078125</ele>
        <time>2011-05-12T08:40:59Z</time>
      </trkpt>
      <trkpt lat="43.44345" lon="3.67363">
        <ele>7.827880859375</ele>
        <time>2011-05-12T08:41:05Z</time>
      </trkpt>
      <trkpt lat="43.4436" lon="3.67378">
        <ele>7.827880859375</ele>
        <time>2011-05-12T08:41:12Z</time>
      </trkpt>
      <trkpt lat="43.44366" lon="3.67383">
        <ele>7.827880859375</ele>
        <time>2011-05-12T08:41:17Z</time>
      </trkpt>
      <trkpt lat="43.44366" lon="3.67383">
        <ele>8.30859375</ele>
        <time>2011-05-12T08:41:18Z</time>
      </trkpt>
      <trkpt lat="43.44368" lon="3.67383">
        <ele>7.827880859375</ele>
        <time>2011-05-12T08:41:24Z</time>
      </trkpt>
      <trkpt lat="43.44372" lon="3.67386">
        <ele>8.30859375</ele>
        <time>2011-05-12T08:41:26Z</time>
      </trkpt>
      <trkpt lat="43.44375" lon="3.67391">
        <ele>8.7891845703125</ele>
        <time>2011-05-12T08:41:33Z</time>
      </trkpt>
      <trkpt lat="43.44374" lon="3.6739">
        <ele>8.30859375</ele>
        <time>2011-05-12T08:41:34Z</time>
      </trkpt>
      <trkpt lat="43.44374" lon="3.67389">
        <ele>8.7891845703125</ele>
        <time>2011-05-12T08:41:37Z</time>
      </trkpt>
      <trkpt lat="43.44376" lon="3.67389">
        <ele>9.2698974609375</ele>
        <time>2011-05-12T08:41:39Z</time>
      </trkpt>
      <trkpt lat="43.44376" lon="3.67388">
        <ele>8.30859375</ele>
        <time>2011-05-12T08:41:41Z</time>
      </trkpt>
      <trkpt lat="43.44373" lon="3.67385">
        <ele>9.2698974609375</ele>
        <time>2011-05-12T08:42:28Z</time>
      </trkpt>
      <trkpt lat="43.44374" lon="3.6739">
        <ele>9.2698974609375</ele>
        <time>2011-05-12T08:42:30Z</time>
      </trkpt>
      <trkpt lat="43.4438" lon="3.67398">
        <ele>9.7506103515625</ele>
        <time>2011-05-12T08:42:36Z</time>
      </trkpt>
      <trkpt lat="43.44392" lon="3.67407">
        <ele>12.634399414062</ele>
        <time>2011-05-12T08:42:44Z</time>
      </trkpt>
      <trkpt lat="43.444" lon="3.67409">
        <ele>12.634399414062</ele>
        <time>2011-05-12T08:42:49Z</time>
      </trkpt>
      <trkpt lat="43.44402" lon="3.67411">
        <ele>12.15380859375</ele>
        <time>2011-05-12T08:42:54Z</time>
      </trkpt>
      <trkpt lat="43.44402" lon="3.67413">
        <ele>11.192504882812</ele>
        <time>2011-05-12T08:44:24Z</time>
      </trkpt>
      <trkpt lat="43.44403" lon="3.6741">
        <ele>11.673217773438</ele>
        <time>2011-05-12T08:44:27Z</time>
      </trkpt>
      <trkpt lat="43.44407" lon="3.67408">
        <ele>10.711791992188</ele>
        <time>2011-05-12T08:44:34Z</time>
      </trkpt>
      <trkpt lat="43.44408" lon="3.67408">
        <ele>10.231201171875</ele>
        <time>2011-05-12T08:44:35Z</time>
      </trkpt>
      <trkpt lat="43.44408" lon="3.67407">
        <ele>9.7506103515625</ele>
        <time>2011-05-12T08:44:38Z</time>
      </trkpt>
      <trkpt lat="43.44409" lon="3.67407">
        <ele>8.7891845703125</ele>
        <time>2011-05-12T08:44:39Z</time>
      </trkpt>
      <trkpt lat="43.44411" lon="3.67407">
        <ele>9.7506103515625</ele>
        <time>2011-05-12T08:44:42Z</time>
      </trkpt>
      <trkpt lat="43.44417" lon="3.67409">
        <ele>8.7891845703125</ele>
        <time>2011-05-12T08:44:46Z</time>
      </trkpt>
      <trkpt lat="43.44425" lon="3.67411">
        <ele>8.30859375</ele>
        <time>2011-05-12T08:44:53Z</time>
      </trkpt>
      <trkpt lat="43.44428" lon="3.6741">
        <ele>7.34716796875</ele>
        <time>2011-05-12T08:44:57Z</time>
      </trkpt>
      <trkpt lat="43.44429" lon="3.67409">
        <ele>8.30859375</ele>
        <time>2011-05-12T08:45:00Z</time>
      </trkpt>
      <trkpt lat="43.44429" lon="3.67409">
        <ele>7.827880859375</ele>
        <time>2011-05-12T08:45:01Z</time>
      </trkpt>
      <trkpt lat="43.44433" lon="3.67411">
        <ele>6.866455078125</ele>
        <time>2011-05-12T08:45:04Z</time>
      </trkpt>
      <trkpt lat="43.44432" lon="3.67412">
        <ele>6.866455078125</ele>
        <time>2011-05-12T08:45:06Z</time>
      </trkpt>
      <trkpt lat="43.44433" lon="3.6741">
        <ele>6.866455078125</ele>
        <time>2011-05-12T08:45:37Z</time>
      </trkpt>
      <trkpt lat="43.44442" lon="3.67415">
        <ele>6.866455078125</ele>
        <time>2011-05-12T08:45:41Z</time>
      </trkpt>
      <trkpt lat="43.44444" lon="3.67421">
        <ele>6.866455078125</ele>
        <time>2011-05-12T08:45:45Z</time>
      </trkpt>
      <trkpt lat="43.44449" lon="3.67424">
        <ele>6.866455078125</ele>
        <time>2011-05-12T08:45:51Z</time>
      </trkpt>
      <trkpt lat="43.44456" lon="3.67427">
        <ele>6.866455078125</ele>
        <time>2011-05-12T08:45:54Z</time>
      </trkpt>
      <trkpt lat="43.44467" lon="3.67428">
        <ele>6.3858642578125</ele>
        <time>2011-05-12T08:45:59Z</time>
      </trkpt>
      <trkpt lat="43.44469" lon="3.67409">
        <ele>6.866455078125</ele>
        <time>2011-05-12T08:46:05Z</time>
      </trkpt>
      <trkpt lat="43.44469" lon="3.67408">
        <ele>6.3858642578125</ele>
        <time>2011-05-12T08:46:06Z</time>
      </trkpt>
      <trkpt lat="43.44468" lon="3.67407">
        <ele>6.3858642578125</ele>
        <time>2011-05-12T08:46:12Z</time>
      </trkpt>
      <trkpt lat="43.44467" lon="3.67407">
        <ele>6.3858642578125</ele>
        <time>2011-05-12T08:46:13Z</time>
      </trkpt>
      <trkpt lat="43.44464" lon="3.67409">
        <ele>6.866455078125</ele>
        <time>2011-05-12T08:46:41Z</time>
      </trkpt>
      <trkpt lat="43.44464" lon="3.6741">
        <ele>6.866455078125</ele>
        <time>2011-05-12T08:46:42Z</time>
      </trkpt>
      <trkpt lat="43.44464" lon="3.67416">
        <ele>6.3858642578125</ele>
        <time>2011-05-12T08:46:44Z</time>
      </trkpt>
      <trkpt lat="43.44471" lon="3.67426">
        <ele>6.3858642578125</ele>
        <time>2011-05-12T08:46:49Z</time>
      </trkpt>
      <trkpt lat="43.44471" lon="3.67426">
        <ele>5.9052734375</ele>
        <time>2011-05-12T08:46:50Z</time>
      </trkpt>
      <trkpt lat="43.44479" lon="3.67426">
        <ele>5.9052734375</ele>
        <time>2011-05-12T08:46:55Z</time>
      </trkpt>
      <trkpt lat="43.44488" lon="3.67432">
        <ele>5.9052734375</ele>
        <time>2011-05-12T08:47:00Z</time>
      </trkpt>
      <trkpt lat="43.44494" lon="3.67433">
        <ele>5.9052734375</ele>
        <time>2011-05-12T08:47:02Z</time>
      </trkpt>
      <trkpt lat="43.44505" lon="3.67444">
        <ele>5.9052734375</ele>
        <time>2011-05-12T08:47:08Z</time>
      </trkpt>
      <trkpt lat="43.44513" lon="3.67451">
        <ele>5.9052734375</ele>
        <time>2011-05-12T08:47:13Z</time>
      </trkpt>
      <trkpt lat="43.44515" lon="3.67452">
        <ele>6.3858642578125</ele>
        <time>2011-05-12T08:47:16Z</time>
      </trkpt>
      <trkpt lat="43.44516" lon="3.67454">
        <ele>5.9052734375</ele>
        <time>2011-05-12T08:48:06Z</time>
      </trkpt>
      <trkpt lat="43.44523" lon="3.67458">
        <ele>5.424560546875</ele>
        <time>2011-05-12T08:48:09Z</time>
      </trkpt>
      <trkpt lat="43.44532" lon="3.67462">
        <ele>6.3858642578125</ele>
        <time>2011-05-12T08:48:15Z</time>
      </trkpt>
      <trkpt lat="43.44541" lon="3.67465">
        <ele>5.424560546875</ele>
        <time>2011-05-12T08:48:20Z</time>
      </trkpt>
      <trkpt lat="43.44555" lon="3.67471">
        <ele>6.3858642578125</ele>
        <time>2011-05-12T08:48:27Z</time>
      </trkpt>
      <trkpt lat="43.44577" lon="3.67479">
        <ele>6.3858642578125</ele>
        <time>2011-05-12T08:48:36Z</time>
      </trkpt>
      <trkpt lat="43.44578" lon="3.67478">
        <ele>5.424560546875</ele>
        <time>2011-05-12T08:48:39Z</time>
      </trkpt>
      <trkpt lat="43.44579" lon="3.67479">
        <ele>4.94384765625</ele>
        <time>2011-05-12T08:48:52Z</time>
      </trkpt>
      <trkpt lat="43.4458" lon="3.67477">
        <ele>5.9052734375</ele>
        <time>2011-05-12T08:48:56Z</time>
      </trkpt>
      <trkpt lat="43.4458" lon="3.67477">
        <ele>5.9052734375</ele>
        <time>2011-05-12T08:48:57Z</time>
      </trkpt>
      <trkpt lat="43.4458" lon="3.67477">
        <ele>6.3858642578125</ele>
        <time>2011-05-12T08:49:00Z</time>
      </trkpt>
      <trkpt lat="43.4458" lon="3.67476">
        <ele>5.9052734375</ele>
        <time>2011-05-12T08:49:01Z</time>
      </trkpt>
      <trkpt lat="43.44581" lon="3.67474">
        <ele>5.424560546875</ele>
        <time>2011-05-12T08:49:26Z</time>
      </trkpt>
      <trkpt lat="43.44582" lon="3.67474">
        <ele>5.424560546875</ele>
        <time>2011-05-12T08:49:27Z</time>
      </trkpt>
      <trkpt lat="43.44596" lon="3.67478">
        <ele>4.94384765625</ele>
        <time>2011-05-12T08:49:37Z</time>
      </trkpt>
      <trkpt lat="43.44602" lon="3.6748">
        <ele>5.424560546875</ele>
        <time>2011-05-12T08:49:44Z</time>
      </trkpt>
      <trkpt lat="43.44602" lon="3.6748">
        <ele>5.424560546875</ele>
        <time>2011-05-12T08:49:45Z</time>
      </trkpt>
      <trkpt lat="43.44594" lon="3.67479">
        <ele>6.3858642578125</ele>
        <time>2011-05-12T08:53:53Z</time>
      </trkpt>
      <trkpt lat="43.44598" lon="3.67482">
        <ele>5.9052734375</ele>
        <time>2011-05-12T08:53:57Z</time>
      </trkpt>
      <trkpt lat="43.44604" lon="3.67486">
        <ele>6.3858642578125</ele>
        <time>2011-05-12T08:54:05Z</time>
      </trkpt>
      <trkpt lat="43.44605" lon="3.67486">
        <ele>6.3858642578125</ele>
        <time>2011-05-12T08:54:07Z</time>
      </trkpt>
      <trkpt lat="43.44607" lon="3.67488">
        <ele>7.34716796875</ele>
        <time>2011-05-12T08:54:16Z</time>
      </trkpt>
      <trkpt lat="43.4462" lon="3.67492">
        <ele>6.866455078125</ele>
        <time>2011-05-12T08:54:21Z</time>
      </trkpt>
      <trkpt lat="43.44631" lon="3.67499">
        <ele>7.827880859375</ele>
        <time>2011-05-12T08:54:27Z</time>
      </trkpt>
      <trkpt lat="43.44635" lon="3.67501">
        <ele>7.827880859375</ele>
        <time>2011-05-12T08:54:31Z</time>
      </trkpt>
      <trkpt lat="43.44639" lon="3.67501">
        <ele>7.827880859375</ele>
        <time>2011-05-12T08:54:51Z</time>
      </trkpt>
      <trkpt lat="43.44646" lon="3.67503">
        <ele>8.30859375</ele>
        <time>2011-05-12T08:54:55Z</time>
      </trkpt>
      <trkpt lat="43.44654" lon="3.67511">
        <ele>8.30859375</ele>
        <time>2011-05-12T08:55:01Z</time>
      </trkpt>
      <trkpt lat="43.44655" lon="3.67513">
        <ele>8.30859375</ele>
        <time>2011-05-12T08:55:04Z</time>
      </trkpt>
      <trkpt lat="43.44656" lon="3.67516">
        <ele>8.7891845703125</ele>
        <time>2011-05-12T08:55:15Z</time>
      </trkpt>
      <trkpt lat="43.44667" lon="3.67526">
        <ele>8.7891845703125</ele>
        <time>2011-05-12T08:55:19Z</time>
      </trkpt>
      <trkpt lat="43.44693" lon="3.67547">
        <ele>8.30859375</ele>
        <time>2011-05-12T08:55:29Z</time>
      </trkpt>
      <trkpt lat="43.44694" lon="3.67547">
        <ele>8.30859375</ele>
        <time>2011-05-12T08:55:30Z</time>
      </trkpt>
      <trkpt lat="43.44702" lon="3.67556">
        <ele>8.7891845703125</ele>
        <time>2011-05-12T08:55:36Z</time>
      </trkpt>
      <trkpt lat="43.44718" lon="3.67574">
        <ele>6.866455078125</ele>
        <time>2011-05-12T08:55:43Z</time>
      </trkpt>
      <trkpt lat="43.44739" lon="3.67598">
        <ele>7.34716796875</ele>
        <time>2011-05-12T08:55:52Z</time>
      </trkpt>
      <trkpt lat="43.44748" lon="3.6761">
        <ele>7.827880859375</ele>
        <time>2011-05-12T08:55:56Z</time>
      </trkpt>
      <trkpt lat="43.44754" lon="3.67607">
        <ele>7.34716796875</ele>
        <time>2011-05-12T08:56:01Z</time>
      </trkpt>
      <trkpt lat="43.44755" lon="3.67606">
        <ele>7.34716796875</ele>
        <time>2011-05-12T08:56:03Z</time>
      </trkpt>
      <trkpt lat="43.44752" lon="3.67603">
        <ele>7.34716796875</ele>
        <time>2011-05-12T08:56:23Z</time>
      </trkpt>
      <trkpt lat="43.44751" lon="3.67603">
        <ele>7.34716796875</ele>
        <time>2011-05-12T08:56:26Z</time>
      </trkpt>
      <trkpt lat="43.44752" lon="3.67603">
        <ele>7.34716796875</ele>
        <time>2011-05-12T08:56:29Z</time>
      </trkpt>
      <trkpt lat="43.44753" lon="3.67603">
        <ele>7.34716796875</ele>
        <time>2011-05-12T08:56:30Z</time>
      </trkpt>
      <trkpt lat="43.44754" lon="3.67605">
        <ele>7.34716796875</ele>
        <time>2011-05-12T08:56:31Z</time>
      </trkpt>
      <trkpt lat="43.44755" lon="3.67605">
        <ele>7.34716796875</ele>
        <time>2011-05-12T08:56:35Z</time>
      </trkpt>
      <trkpt lat="43.44756" lon="3.67607">
        <ele>7.827880859375</ele>
        <time>2011-05-12T08:56:36Z</time>
      </trkpt>
      <trkpt lat="43.44757" lon="3.67607">
        <ele>6.866455078125</ele>
        <time>2011-05-12T08:56:37Z</time>
      </trkpt>
      <trkpt lat="43.44762" lon="3.67617">
        <ele>7.827880859375</ele>
        <time>2011-05-12T08:56:47Z</time>
      </trkpt>
      <trkpt lat="43.44763" lon="3.67619">
        <ele>8.30859375</ele>
        <time>2011-05-12T08:56:50Z</time>
      </trkpt>
      <trkpt lat="43.44768" lon="3.67627">
        <ele>8.30859375</ele>
        <time>2011-05-12T08:56:54Z</time>
      </trkpt>
      <trkpt lat="43.44771" lon="3.67632">
        <ele>8.30859375</ele>
        <time>2011-05-12T08:56:57Z</time>
      </trkpt>
      <trkpt lat="43.44768" lon="3.67634">
        <ele>8.30859375</ele>
        <time>2011-05-12T08:57:02Z</time>
      </trkpt>
      <trkpt lat="43.44766" lon="3.67634">
        <ele>8.30859375</ele>
        <time>2011-05-12T08:57:06Z</time>
      </trkpt>
      <trkpt lat="43.44771" lon="3.67635">
        <ele>7.34716796875</ele>
        <time>2011-05-12T08:57:26Z</time>
      </trkpt>
      <trkpt lat="43.44772" lon="3.67636">
        <ele>8.30859375</ele>
        <time>2011-05-12T08:57:27Z</time>
      </trkpt>
      <trkpt lat="43.4478" lon="3.67641">
        <ele>7.34716796875</ele>
        <time>2011-05-12T08:57:30Z</time>
      </trkpt>
      <trkpt lat="43.44793" lon="3.67656">
        <ele>7.827880859375</ele>
        <time>2011-05-12T08:57:37Z</time>
      </trkpt>
      <trkpt lat="43.44801" lon="3.67665">
        <ele>6.3858642578125</ele>
        <time>2011-05-12T08:57:43Z</time>
      </trkpt>
      <trkpt lat="43.44801" lon="3.67665">
        <ele>6.866455078125</ele>
        <time>2011-05-12T08:57:44Z</time>
      </trkpt>
      <trkpt lat="43.44801" lon="3.67662">
        <ele>6.866455078125</ele>
        <time>2011-05-12T08:58:06Z</time>
      </trkpt>
      <trkpt lat="43.44801" lon="3.67662">
        <ele>7.34716796875</ele>
        <time>2011-05-12T08:58:07Z</time>
      </trkpt>
      <trkpt lat="43.44801" lon="3.67663">
        <ele>7.34716796875</ele>
        <time>2011-05-12T08:58:10Z</time>
      </trkpt>
      <trkpt lat="43.44803" lon="3.67665">
        <ele>7.827880859375</ele>
        <time>2011-05-12T08:58:11Z</time>
      </trkpt>
      <trkpt lat="43.44804" lon="3.67669">
        <ele>7.827880859375</ele>
        <time>2011-05-12T08:58:16Z</time>
      </trkpt>
      <trkpt lat="43.44803" lon="3.67662">
        <ele>7.827880859375</ele>
        <time>2011-05-12T09:02:21Z</time>
      </trkpt>
      <trkpt lat="43.44803" lon="3.67662">
        <ele>7.34716796875</ele>
        <time>2011-05-12T09:02:22Z</time>
      </trkpt>
      <trkpt lat="43.44803" lon="3.67662">
        <ele>7.827880859375</ele>
        <time>2011-05-12T09:02:26Z</time>
      </trkpt>
      <trkpt lat="43.44803" lon="3.67662">
        <ele>7.34716796875</ele>
        <time>2011-05-12T09:02:27Z</time>
      </trkpt>
      <trkpt lat="43.44793" lon="3.67652">
        <ele>6.866455078125</ele>
        <time>2011-05-12T09:02:32Z</time>
      </trkpt>
      <trkpt lat="43.44783" lon="3.67641">
        <ele>6.866455078125</ele>
        <time>2011-05-12T09:02:38Z</time>
      </trkpt>
      <trkpt lat="43.44772" lon="3.67629">
        <ele>7.34716796875</ele>
        <time>2011-05-12T09:02:44Z</time>
      </trkpt>
      <trkpt lat="43.44763" lon="3.67616">
        <ele>6.866455078125</ele>
        <time>2011-05-12T09:02:49Z</time>
      </trkpt>
      <trkpt lat="43.44751" lon="3.67615">
        <ele>7.827880859375</ele>
        <time>2011-05-12T09:02:54Z</time>
      </trkpt>
      <trkpt lat="43.44743" lon="3.67621">
        <ele>8.30859375</ele>
        <time>2011-05-12T09:02:58Z</time>
      </trkpt>
      <trkpt lat="43.4472" lon="3.67635">
        <ele>9.7506103515625</ele>
        <time>2011-05-12T09:03:08Z</time>
      </trkpt>
      <trkpt lat="43.44703" lon="3.67643">
        <ele>10.711791992188</ele>
        <time>2011-05-12T09:03:15Z</time>
      </trkpt>
      <trkpt lat="43.4469" lon="3.67654">
        <ele>12.15380859375</ele>
        <time>2011-05-12T09:03:21Z</time>
      </trkpt>
      <trkpt lat="43.4468" lon="3.67656">
        <ele>13.115112304688</ele>
        <time>2011-05-12T09:03:26Z</time>
      </trkpt>
      <trkpt lat="43.44662" lon="3.67647">
        <ele>13.595825195312</ele>
        <time>2011-05-12T09:03:35Z</time>
      </trkpt>
      <trkpt lat="43.44643" lon="3.67636">
        <ele>14.076416015625</ele>
        <time>2011-05-12T09:03:43Z</time>
      </trkpt>
      <trkpt lat="43.44625" lon="3.67627">
        <ele>14.076416015625</ele>
        <time>2011-05-12T09:03:51Z</time>
      </trkpt>
      <trkpt lat="43.44614" lon="3.67627">
        <ele>14.557006835938</ele>
        <time>2011-05-12T09:03:58Z</time>
      </trkpt>
      <trkpt lat="43.44608" lon="3.67633">
        <ele>14.557006835938</ele>
        <time>2011-05-12T09:04:02Z</time>
      </trkpt>
      <trkpt lat="43.446" lon="3.67654">
        <ele>14.076416015625</ele>
        <time>2011-05-12T09:04:10Z</time>
      </trkpt>
      <trkpt lat="43.44593" lon="3.67672">
        <ele>14.557006835938</ele>
        <time>2011-05-12T09:04:16Z</time>
      </trkpt>
      <trkpt lat="43.44581" lon="3.67699">
        <ele>14.557006835938</ele>
        <time>2011-05-12T09:04:25Z</time>
      </trkpt>
      <trkpt lat="43.44574" lon="3.67719">
        <ele>15.037719726562</ele>
        <time>2011-05-12T09:04:32Z</time>
      </trkpt>
      <trkpt lat="43.44565" lon="3.67741">
        <ele>15.037719726562</ele>
        <time>2011-05-12T09:04:39Z</time>
      </trkpt>
      <trkpt lat="43.44557" lon="3.67766">
        <ele>14.557006835938</ele>
        <time>2011-05-12T09:04:47Z</time>
      </trkpt>
      <trkpt lat="43.44555" lon="3.67778">
        <ele>14.557006835938</ele>
        <time>2011-05-12T09:04:52Z</time>
      </trkpt>
      <trkpt lat="43.44554" lon="3.67784">
        <ele>14.557006835938</ele>
        <time>2011-05-12T09:04:54Z</time>
      </trkpt>
      <trkpt lat="43.44552" lon="3.67801">
        <ele>14.557006835938</ele>
        <time>2011-05-12T09:04:59Z</time>
      </trkpt>
      <trkpt lat="43.4455" lon="3.67813">
        <ele>14.076416015625</ele>
        <time>2011-05-12T09:05:04Z</time>
      </trkpt>
      <trkpt lat="43.44547" lon="3.67821">
        <ele>13.595825195312</ele>
        <time>2011-05-12T09:05:07Z</time>
      </trkpt>
      <trkpt lat="43.44553" lon="3.67832">
        <ele>13.595825195312</ele>
        <time>2011-05-12T09:05:11Z</time>
      </trkpt>
      <trkpt lat="43.44573" lon="3.67843">
        <ele>14.557006835938</ele>
        <time>2011-05-12T09:05:19Z</time>
      </trkpt>
      <trkpt lat="43.44595" lon="3.67848">
        <ele>14.557006835938</ele>
        <time>2011-05-12T09:05:27Z</time>
      </trkpt>
      <trkpt lat="43.44617" lon="3.67852">
        <ele>14.557006835938</ele>
        <time>2011-05-12T09:05:35Z</time>
      </trkpt>
      <trkpt lat="43.44639" lon="3.67852">
        <ele>15.037719726562</ele>
        <time>2011-05-12T09:05:43Z</time>
      </trkpt>
      <trkpt lat="43.44665" lon="3.67852">
        <ele>15.037719726562</ele>
        <time>2011-05-12T09:05:52Z</time>
      </trkpt>
      <trkpt lat="43.4469" lon="3.67853">
        <ele>15.518432617188</ele>
        <time>2011-05-12T09:06:01Z</time>
      </trkpt>
      <trkpt lat="43.44706" lon="3.67859">
        <ele>15.518432617188</ele>
        <time>2011-05-12T09:06:07Z</time>
      </trkpt>
      <trkpt lat="43.44733" lon="3.67865">
        <ele>14.557006835938</ele>
        <time>2011-05-12T09:06:16Z</time>
      </trkpt>
      <trkpt lat="43.44759" lon="3.6787">
        <ele>15.518432617188</ele>
        <time>2011-05-12T09:06:25Z</time>
      </trkpt>
      <trkpt lat="43.44784" lon="3.67874">
        <ele>15.037719726562</ele>
        <time>2011-05-12T09:06:33Z</time>
      </trkpt>
      <trkpt lat="43.44811" lon="3.67877">
        <ele>15.518432617188</ele>
        <time>2011-05-12T09:06:41Z</time>
      </trkpt>
      <trkpt lat="43.4483" lon="3.67882">
        <ele>15.9990234375</ele>
        <time>2011-05-12T09:06:47Z</time>
      </trkpt>
      <trkpt lat="43.44848" lon="3.67889">
        <ele>16.479736328125</ele>
        <time>2011-05-12T09:06:53Z</time>
      </trkpt>
      <trkpt lat="43.44869" lon="3.67898">
        <ele>16.479736328125</ele>
        <time>2011-05-12T09:07:00Z</time>
      </trkpt>
      <trkpt lat="43.44889" lon="3.67907">
        <ele>15.9990234375</ele>
        <time>2011-05-12T09:07:08Z</time>
      </trkpt>
      <trkpt lat="43.44897" lon="3.67911">
        <ele>16.479736328125</ele>
        <time>2011-05-12T09:07:13Z</time>
      </trkpt>
      <trkpt lat="43.44898" lon="3.67913">
        <ele>15.9990234375</ele>
        <time>2011-05-12T09:07:17Z</time>
      </trkpt>
      <trkpt lat="43.44897" lon="3.67913">
        <ele>16.479736328125</ele>
        <time>2011-05-12T09:07:19Z</time>
      </trkpt>
      <trkpt lat="43.44896" lon="3.67913">
        <ele>16.479736328125</ele>
        <time>2011-05-12T09:07:22Z</time>
      </trkpt>
      <trkpt lat="43.44896" lon="3.67913">
        <ele>16.96044921875</ele>
        <time>2011-05-12T09:07:24Z</time>
      </trkpt>
      <trkpt lat="43.44897" lon="3.67908">
        <ele>16.479736328125</ele>
        <time>2011-05-12T09:09:00Z</time>
      </trkpt>
      <trkpt lat="43.44896" lon="3.67906">
        <ele>15.518432617188</ele>
        <time>2011-05-12T09:09:01Z</time>
      </trkpt>
      <trkpt lat="43.449" lon="3.67903">
        <ele>15.9990234375</ele>
        <time>2011-05-12T09:09:05Z</time>
      </trkpt>
      <trkpt lat="43.44919" lon="3.67908">
        <ele>15.9990234375</ele>
        <time>2011-05-12T09:09:12Z</time>
      </trkpt>
      <trkpt lat="43.44926" lon="3.67912">
        <ele>15.518432617188</ele>
        <time>2011-05-12T09:09:14Z</time>
      </trkpt>
      <trkpt lat="43.44943" lon="3.67928">
        <ele>15.9990234375</ele>
        <time>2011-05-12T09:09:20Z</time>
      </trkpt>
      <trkpt lat="43.44951" lon="3.67929">
        <ele>15.9990234375</ele>
        <time>2011-05-12T09:09:22Z</time>
      </trkpt>
      <trkpt lat="43.44981" lon="3.6794">
        <ele>16.479736328125</ele>
        <time>2011-05-12T09:09:30Z</time>
      </trkpt>
      <trkpt lat="43.45005" lon="3.6795">
        <ele>17.441162109375</ele>
        <time>2011-05-12T09:09:37Z</time>
      </trkpt>
      <trkpt lat="43.45029" lon="3.67959">
        <ele>17.441162109375</ele>
        <time>2011-05-12T09:09:44Z</time>
      </trkpt>
      <trkpt lat="43.45061" lon="3.6797">
        <ele>17.921752929688</ele>
        <time>2011-05-12T09:09:53Z</time>
      </trkpt>
      <trkpt lat="43.45093" lon="3.6798">
        <ele>17.441162109375</ele>
        <time>2011-05-12T09:10:02Z</time>
      </trkpt>
      <trkpt lat="43.45118" lon="3.67988">
        <ele>18.40234375</ele>
        <time>2011-05-12T09:10:09Z</time>
      </trkpt>
      <trkpt lat="43.45145" lon="3.67998">
        <ele>18.40234375</ele>
        <time>2011-05-12T09:10:17Z</time>
      </trkpt>
      <trkpt lat="43.45173" lon="3.68005">
        <ele>18.883056640625</ele>
        <time>2011-05-12T09:10:26Z</time>
      </trkpt>
      <trkpt lat="43.45205" lon="3.6801">
        <ele>19.36376953125</ele>
        <time>2011-05-12T09:10:36Z</time>
      </trkpt>
      <trkpt lat="43.45229" lon="3.6802">
        <ele>19.844360351562</ele>
        <time>2011-05-12T09:10:43Z</time>
      </trkpt>
      <trkpt lat="43.45253" lon="3.68037">
        <ele>20.8056640625</ele>
        <time>2011-05-12T09:10:51Z</time>
      </trkpt>
      <trkpt lat="43.45277" lon="3.68056">
        <ele>20.324951171875</ele>
        <time>2011-05-12T09:10:59Z</time>
      </trkpt>
      <trkpt lat="43.45307" lon="3.6808">
        <ele>20.8056640625</ele>
        <time>2011-05-12T09:11:09Z</time>
      </trkpt>
      <trkpt lat="43.45345" lon="3.68109">
        <ele>21.286376953125</ele>
        <time>2011-05-12T09:11:21Z</time>
      </trkpt>
      <trkpt lat="43.45367" lon="3.68123">
        <ele>20.8056640625</ele>
        <time>2011-05-12T09:11:28Z</time>
      </trkpt>
      <trkpt lat="43.4539" lon="3.68138">
        <ele>20.8056640625</ele>
        <time>2011-05-12T09:11:35Z</time>
      </trkpt>
      <trkpt lat="43.45412" lon="3.68154">
        <ele>21.286376953125</ele>
        <time>2011-05-12T09:11:42Z</time>
      </trkpt>
      <trkpt lat="43.45441" lon="3.68173">
        <ele>21.766967773438</ele>
        <time>2011-05-12T09:11:51Z</time>
      </trkpt>
      <trkpt lat="43.45466" lon="3.68191">
        <ele>21.766967773438</ele>
        <time>2011-05-12T09:11:59Z</time>
      </trkpt>
      <trkpt lat="43.45489" lon="3.68209">
        <ele>21.286376953125</ele>
        <time>2011-05-12T09:12:07Z</time>
      </trkpt>
      <trkpt lat="43.45506" lon="3.68224">
        <ele>21.286376953125</ele>
        <time>2011-05-12T09:12:13Z</time>
      </trkpt>
      <trkpt lat="43.45536" lon="3.68242">
        <ele>21.286376953125</ele>
        <time>2011-05-12T09:12:22Z</time>
      </trkpt>
      <trkpt lat="43.45566" lon="3.68251">
        <ele>21.286376953125</ele>
        <time>2011-05-12T09:12:31Z</time>
      </trkpt>
      <trkpt lat="43.45596" lon="3.68259">
        <ele>21.286376953125</ele>
        <time>2011-05-12T09:12:40Z</time>
      </trkpt>
      <trkpt lat="43.45618" lon="3.68274">
        <ele>20.8056640625</ele>
        <time>2011-05-12T09:12:47Z</time>
      </trkpt>
      <trkpt lat="43.45642" lon="3.68292">
        <ele>21.286376953125</ele>
        <time>2011-05-12T09:12:56Z</time>
      </trkpt>
      <trkpt lat="43.45658" lon="3.68307">
        <ele>20.324951171875</ele>
        <time>2011-05-12T09:13:02Z</time>
      </trkpt>
      <trkpt lat="43.45675" lon="3.6833">
        <ele>20.324951171875</ele>
        <time>2011-05-12T09:13:08Z</time>
      </trkpt>
      <trkpt lat="43.45701" lon="3.68355">
        <ele>20.324951171875</ele>
        <time>2011-05-12T09:13:16Z</time>
      </trkpt>
      <trkpt lat="43.45729" lon="3.68377">
        <ele>19.844360351562</ele>
        <time>2011-05-12T09:13:24Z</time>
      </trkpt>
      <trkpt lat="43.45761" lon="3.68405">
        <ele>19.36376953125</ele>
        <time>2011-05-12T09:13:34Z</time>
      </trkpt>
      <trkpt lat="43.45767" lon="3.68417">
        <ele>18.883056640625</ele>
        <time>2011-05-12T09:13:37Z</time>
      </trkpt>
      <trkpt lat="43.45779" lon="3.68418">
        <ele>18.883056640625</ele>
        <time>2011-05-12T09:13:41Z</time>
      </trkpt>
      <trkpt lat="43.45803" lon="3.6841">
        <ele>19.844360351562</ele>
        <time>2011-05-12T09:13:48Z</time>
      </trkpt>
      <trkpt lat="43.45822" lon="3.68407">
        <ele>20.324951171875</ele>
        <time>2011-05-12T09:13:54Z</time>
      </trkpt>
      <trkpt lat="43.45837" lon="3.68405">
        <ele>20.8056640625</ele>
        <time>2011-05-12T09:13:59Z</time>
      </trkpt>
      <trkpt lat="43.45847" lon="3.68403">
        <ele>22.24755859375</ele>
        <time>2011-05-12T09:14:03Z</time>
      </trkpt>
      <trkpt lat="43.45866" lon="3.68407">
        <ele>22.728271484375</ele>
        <time>2011-05-12T09:14:09Z</time>
      </trkpt>
      <trkpt lat="43.45884" lon="3.68419">
        <ele>22.728271484375</ele>
        <time>2011-05-12T09:14:15Z</time>
      </trkpt>
      <trkpt lat="43.45901" lon="3.68434">
        <ele>23.208984375</ele>
        <time>2011-05-12T09:14:21Z</time>
      </trkpt>
      <trkpt lat="43.45921" lon="3.68453">
        <ele>22.728271484375</ele>
        <time>2011-05-12T09:14:28Z</time>
      </trkpt>
      <trkpt lat="43.45935" lon="3.68471">
        <ele>22.24755859375</ele>
        <time>2011-05-12T09:14:34Z</time>
      </trkpt>
      <trkpt lat="43.45949" lon="3.68485">
        <ele>21.766967773438</ele>
        <time>2011-05-12T09:14:40Z</time>
      </trkpt>
      <trkpt lat="43.45967" lon="3.68501">
        <ele>21.766967773438</ele>
        <time>2011-05-12T09:14:46Z</time>
      </trkpt>
      <trkpt lat="43.45981" lon="3.68502">
        <ele>21.766967773438</ele>
        <time>2011-05-12T09:14:50Z</time>
      </trkpt>
      <trkpt lat="43.45984" lon="3.68497">
        <ele>20.324951171875</ele>
        <time>2011-05-12T09:14:55Z</time>
      </trkpt>
      <trkpt lat="43.45984" lon="3.68496">
        <ele>20.8056640625</ele>
        <time>2011-05-12T09:14:56Z</time>
      </trkpt>
      <trkpt lat="43.45983" lon="3.68477">
        <ele>20.8056640625</ele>
        <time>2011-05-12T09:15:03Z</time>
      </trkpt>
      <trkpt lat="43.45984" lon="3.68453">
        <ele>20.324951171875</ele>
        <time>2011-05-12T09:15:10Z</time>
      </trkpt>
      <trkpt lat="43.45988" lon="3.68422">
        <ele>17.921752929688</ele>
        <time>2011-05-12T09:15:16Z</time>
      </trkpt>
      <trkpt lat="43.45992" lon="3.68411">
        <ele>16.96044921875</ele>
        <time>2011-05-12T09:15:18Z</time>
      </trkpt>
      <trkpt lat="43.45998" lon="3.68399">
        <ele>15.037719726562</ele>
        <time>2011-05-12T09:15:20Z</time>
      </trkpt>
      <trkpt lat="43.46023" lon="3.68375">
        <ele>12.15380859375</ele>
        <time>2011-05-12T09:15:26Z</time>
      </trkpt>
      <trkpt lat="43.46037" lon="3.68371">
        <ele>9.7506103515625</ele>
        <time>2011-05-12T09:15:29Z</time>
      </trkpt>
      <trkpt lat="43.46047" lon="3.68338">
        <ele>8.30859375</ele>
        <time>2011-05-12T09:15:33Z</time>
      </trkpt>
      <trkpt lat="43.46048" lon="3.68331">
        <ele>7.827880859375</ele>
        <time>2011-05-12T09:15:34Z</time>
      </trkpt>
      <trkpt lat="43.46049" lon="3.68325">
        <ele>6.866455078125</ele>
        <time>2011-05-12T09:15:37Z</time>
      </trkpt>
      <trkpt lat="43.4605" lon="3.68325">
        <ele>6.866455078125</ele>
        <time>2011-05-12T09:15:40Z</time>
      </trkpt>
      <trkpt lat="43.46062" lon="3.68331">
        <ele>6.3858642578125</ele>
        <time>2011-05-12T09:15:45Z</time>
      </trkpt>
      <trkpt lat="43.46069" lon="3.68338">
        <ele>6.3858642578125</ele>
        <time>2011-05-12T09:15:48Z</time>
      </trkpt>
      <trkpt lat="43.4608" lon="3.68326">
        <ele>6.3858642578125</ele>
        <time>2011-05-12T09:15:53Z</time>
      </trkpt>
      <trkpt lat="43.46087" lon="3.68309">
        <ele>5.9052734375</ele>
        <time>2011-05-12T09:15:58Z</time>
      </trkpt>
      <trkpt lat="43.46089" lon="3.68308">
        <ele>6.3858642578125</ele>
        <time>2011-05-12T09:16:01Z</time>
      </trkpt>
      <trkpt lat="43.46089" lon="3.68311">
        <ele>6.3858642578125</ele>
        <time>2011-05-12T09:16:30Z</time>
      </trkpt>
      <trkpt lat="43.46086" lon="3.6831">
        <ele>6.866455078125</ele>
        <time>2011-05-12T09:16:34Z</time>
      </trkpt>
      <trkpt lat="43.46086" lon="3.6831">
        <ele>6.3858642578125</ele>
        <time>2011-05-12T09:16:35Z</time>
      </trkpt>
      <trkpt lat="43.46085" lon="3.68308">
        <ele>6.866455078125</ele>
        <time>2011-05-12T09:16:41Z</time>
      </trkpt>
      <trkpt lat="43.46087" lon="3.68307">
        <ele>6.866455078125</ele>
        <time>2011-05-12T09:16:43Z</time>
      </trkpt>
      <trkpt lat="43.46088" lon="3.68306">
        <ele>6.866455078125</ele>
        <time>2011-05-12T09:16:46Z</time>
      </trkpt>
      <trkpt lat="43.46088" lon="3.68305">
        <ele>6.3858642578125</ele>
        <time>2011-05-12T09:16:49Z</time>
      </trkpt>
      <trkpt lat="43.46091" lon="3.68301">
        <ele>7.34716796875</ele>
        <time>2011-05-12T09:16:52Z</time>
      </trkpt>
      <trkpt lat="43.46091" lon="3.68301">
        <ele>6.866455078125</ele>
        <time>2011-05-12T09:16:54Z</time>
      </trkpt>
      <trkpt lat="43.46092" lon="3.683">
        <ele>6.866455078125</ele>
        <time>2011-05-12T09:16:57Z</time>
      </trkpt>
      <trkpt lat="43.46092" lon="3.68299">
        <ele>6.866455078125</ele>
        <time>2011-05-12T09:16:58Z</time>
      </trkpt>
      <trkpt lat="43.46091" lon="3.68283">
        <ele>6.3858642578125</ele>
        <time>2011-05-12T09:17:02Z</time>
      </trkpt>
      <trkpt lat="43.46093" lon="3.68262">
        <ele>6.866455078125</ele>
        <time>2011-05-12T09:17:08Z</time>
      </trkpt>
      <trkpt lat="43.46096" lon="3.68237">
        <ele>6.866455078125</ele>
        <time>2011-05-12T09:17:14Z</time>
      </trkpt>
      <trkpt lat="43.46103" lon="3.68217">
        <ele>6.866455078125</ele>
        <time>2011-05-12T09:17:20Z</time>
      </trkpt>
      <trkpt lat="43.46109" lon="3.68197">
        <ele>6.3858642578125</ele>
        <time>2011-05-12T09:17:26Z</time>
      </trkpt>
      <trkpt lat="43.46118" lon="3.68176">
        <ele>6.3858642578125</ele>
        <time>2011-05-12T09:17:33Z</time>
      </trkpt>
      <trkpt lat="43.46127" lon="3.68152">
        <ele>6.3858642578125</ele>
        <time>2011-05-12T09:17:41Z</time>
      </trkpt>
      <trkpt lat="43.46134" lon="3.68132">
        <ele>6.3858642578125</ele>
        <time>2011-05-12T09:17:48Z</time>
      </trkpt>
      <trkpt lat="43.46135" lon="3.68129">
        <ele>6.3858642578125</ele>
        <time>2011-05-12T09:17:51Z</time>
      </trkpt>
      <trkpt lat="43.46135" lon="3.68129">
        <ele>6.3858642578125</ele>
        <time>2011-05-12T09:17:58Z</time>
      </trkpt>
      <trkpt lat="43.4614" lon="3.68126">
        <ele>5.9052734375</ele>
        <time>2011-05-12T09:18:02Z</time>
      </trkpt>
      <trkpt lat="43.46149" lon="3.68113">
        <ele>6.3858642578125</ele>
        <time>2011-05-12T09:18:09Z</time>
      </trkpt>
      <trkpt lat="43.46157" lon="3.68105">
        <ele>6.3858642578125</ele>
        <time>2011-05-12T09:18:15Z</time>
      </trkpt>
      <trkpt lat="43.46171" lon="3.68097">
        <ele>5.9052734375</ele>
        <time>2011-05-12T09:18:23Z</time>
      </trkpt>
      <trkpt lat="43.4619" lon="3.68086">
        <ele>5.9052734375</ele>
        <time>2011-05-12T09:18:32Z</time>
      </trkpt>
      <trkpt lat="43.46208" lon="3.68073">
        <ele>5.9052734375</ele>
        <time>2011-05-12T09:18:42Z</time>
      </trkpt>
      <trkpt lat="43.46214" lon="3.68066">
        <ele>5.9052734375</ele>
        <time>2011-05-12T09:18:48Z</time>
      </trkpt>
      <trkpt lat="43.46214" lon="3.68066">
        <ele>6.3858642578125</ele>
        <time>2011-05-12T09:18:49Z</time>
      </trkpt>
      <trkpt lat="43.46214" lon="3.68067">
        <ele>5.9052734375</ele>
        <time>2011-05-12T09:21:48Z</time>
      </trkpt>
      <trkpt lat="43.46215" lon="3.68067">
        <ele>5.9052734375</ele>
        <time>2011-05-12T09:21:50Z</time>
      </trkpt>
      <trkpt lat="43.46215" lon="3.68066">
        <ele>6.3858642578125</ele>
        <time>2011-05-12T09:21:53Z</time>
      </trkpt>
      <trkpt lat="43.46216" lon="3.68065">
        <ele>5.9052734375</ele>
        <time>2011-05-12T09:21:54Z</time>
      </trkpt>
      <trkpt lat="43.46222" lon="3.68064">
        <ele>5.9052734375</ele>
        <time>2011-05-12T09:21:58Z</time>
      </trkpt>
      <trkpt lat="43.46224" lon="3.68063">
        <ele>5.424560546875</ele>
        <time>2011-05-12T09:22:01Z</time>
      </trkpt>
      <trkpt lat="43.46224" lon="3.68063">
        <ele>5.9052734375</ele>
        <time>2011-05-12T09:22:06Z</time>
      </trkpt>
      <trkpt lat="43.46225" lon="3.68063">
        <ele>5.9052734375</ele>
        <time>2011-05-12T09:22:07Z</time>
      </trkpt>
      <trkpt lat="43.46226" lon="3.68063">
        <ele>5.9052734375</ele>
        <time>2011-05-12T09:22:24Z</time>
      </trkpt>
      <trkpt lat="43.46226" lon="3.68063">
        <ele>6.3858642578125</ele>
        <time>2011-05-12T09:22:25Z</time>
      </trkpt>
      <trkpt lat="43.46226" lon="3.68061">
        <ele>6.3858642578125</ele>
        <time>2011-05-12T09:22:34Z</time>
      </trkpt>
      <trkpt lat="43.46226" lon="3.68061">
        <ele>6.3858642578125</ele>
        <time>2011-05-12T09:22:35Z</time>
      </trkpt>
      <trkpt lat="43.46232" lon="3.68045">
        <ele>6.3858642578125</ele>
        <time>2011-05-12T09:22:41Z</time>
      </trkpt>
      <trkpt lat="43.46242" lon="3.68032">
        <ele>6.3858642578125</ele>
        <time>2011-05-12T09:22:47Z</time>
      </trkpt>
      <trkpt lat="43.46255" lon="3.68013">
        <ele>6.3858642578125</ele>
        <time>2011-05-12T09:22:54Z</time>
      </trkpt>
      <trkpt lat="43.46268" lon="3.67994">
        <ele>6.866455078125</ele>
        <time>2011-05-12T09:23:01Z</time>
      </trkpt>
      <trkpt lat="43.4628" lon="3.67975">
        <ele>6.3858642578125</ele>
        <time>2011-05-12T09:23:09Z</time>
      </trkpt>
      <trkpt lat="43.46292" lon="3.67958">
        <ele>5.9052734375</ele>
        <time>2011-05-12T09:23:16Z</time>
      </trkpt>
      <trkpt lat="43.46302" lon="3.67944">
        <ele>5.9052734375</ele>
        <time>2011-05-12T09:23:24Z</time>
      </trkpt>
      <trkpt lat="43.4631" lon="3.67927">
        <ele>6.3858642578125</ele>
        <time>2011-05-12T09:23:30Z</time>
      </trkpt>
      <trkpt lat="43.46324" lon="3.67906">
        <ele>6.3858642578125</ele>
        <time>2011-05-12T09:23:38Z</time>
      </trkpt>
      <trkpt lat="43.46346" lon="3.67885">
        <ele>5.9052734375</ele>
        <time>2011-05-12T09:23:47Z</time>
      </trkpt>
      <trkpt lat="43.46358" lon="3.67865">
        <ele>5.424560546875</ele>
        <time>2011-05-12T09:23:54Z</time>
      </trkpt>
      <trkpt lat="43.46358" lon="3.6784">
        <ele>5.9052734375</ele>
        <time>2011-05-12T09:24:00Z</time>
      </trkpt>
      <trkpt lat="43.46362" lon="3.67813">
        <ele>6.3858642578125</ele>
        <time>2011-05-12T09:24:07Z</time>
      </trkpt>
      <trkpt lat="43.46366" lon="3.67779">
        <ele>5.9052734375</ele>
        <time>2011-05-12T09:24:15Z</time>
      </trkpt>
      <trkpt lat="43.46367" lon="3.67744">
        <ele>5.424560546875</ele>
        <time>2011-05-12T09:24:23Z</time>
      </trkpt>
      <trkpt lat="43.46361" lon="3.67701">
        <ele>5.9052734375</ele>
        <time>2011-05-12T09:24:33Z</time>
      </trkpt>
      <trkpt lat="43.46352" lon="3.67672">
        <ele>4.94384765625</ele>
        <time>2011-05-12T09:24:40Z</time>
      </trkpt>
      <trkpt lat="43.46333" lon="3.67639">
        <ele>5.424560546875</ele>
        <time>2011-05-12T09:24:49Z</time>
      </trkpt>
      <trkpt lat="43.46324" lon="3.67608">
        <ele>5.424560546875</ele>
        <time>2011-05-12T09:24:56Z</time>
      </trkpt>
      <trkpt lat="43.46325" lon="3.67579">
        <ele>4.94384765625</ele>
        <time>2011-05-12T09:25:02Z</time>
      </trkpt>
      <trkpt lat="43.46327" lon="3.67553">
        <ele>5.424560546875</ele>
        <time>2011-05-12T09:25:08Z</time>
      </trkpt>
      <trkpt lat="43.46323" lon="3.67535">
        <ele>4.4632568359375</ele>
        <time>2011-05-12T09:25:14Z</time>
      </trkpt>
      <trkpt lat="43.46324" lon="3.67538">
        <ele>4.4632568359375</ele>
        <time>2011-05-12T09:25:41Z</time>
      </trkpt>
      <trkpt lat="43.46324" lon="3.67538">
        <ele>4.4632568359375</ele>
        <time>2011-05-12T09:25:42Z</time>
      </trkpt>
      <trkpt lat="43.46324" lon="3.67521">
        <ele>4.4632568359375</ele>
        <time>2011-05-12T09:25:47Z</time>
      </trkpt>
      <trkpt lat="43.46319" lon="3.675">
        <ele>4.94384765625</ele>
        <time>2011-05-12T09:25:52Z</time>
      </trkpt>
      <trkpt lat="43.46302" lon="3.6749">
        <ele>4.94384765625</ele>
        <time>2011-05-12T09:25:58Z</time>
      </trkpt>
      <trkpt lat="43.463" lon="3.67487">
        <ele>4.4632568359375</ele>
        <time>2011-05-12T09:26:00Z</time>
      </trkpt>
      <trkpt lat="43.46292" lon="3.67492">
        <ele>4.94384765625</ele>
        <time>2011-05-12T09:26:05Z</time>
      </trkpt>
      <trkpt lat="43.4629" lon="3.67495">
        <ele>4.94384765625</ele>
        <time>2011-05-12T09:26:06Z</time>
      </trkpt>
      <trkpt lat="43.46271" lon="3.67508">
        <ele>4.94384765625</ele>
        <time>2011-05-12T09:26:13Z</time>
      </trkpt>
      <trkpt lat="43.4625" lon="3.6752">
        <ele>4.4632568359375</ele>
        <time>2011-05-12T09:26:20Z</time>
      </trkpt>
      <trkpt lat="43.46244" lon="3.67529">
        <ele>4.4632568359375</ele>
        <time>2011-05-12T09:26:25Z</time>
      </trkpt>
      <trkpt lat="43.46246" lon="3.67526">
        <ele>3.501953125</ele>
        <time>2011-05-12T09:27:12Z</time>
      </trkpt>
      <trkpt lat="43.46246" lon="3.67524">
        <ele>3.982666015625</ele>
        <time>2011-05-12T09:27:14Z</time>
      </trkpt>
      <trkpt lat="43.46255" lon="3.67516">
        <ele>3.982666015625</ele>
        <time>2011-05-12T09:27:20Z</time>
      </trkpt>
      <trkpt lat="43.46258" lon="3.67513">
        <ele>4.4632568359375</ele>
        <time>2011-05-12T09:27:21Z</time>
      </trkpt>
      <trkpt lat="43.46262" lon="3.67489">
        <ele>3.982666015625</ele>
        <time>2011-05-12T09:27:27Z</time>
      </trkpt>
      <trkpt lat="43.46263" lon="3.67484">
        <ele>3.982666015625</ele>
        <time>2011-05-12T09:27:28Z</time>
      </trkpt>
      <trkpt lat="43.46264" lon="3.67475">
        <ele>3.982666015625</ele>
        <time>2011-05-12T09:27:30Z</time>
      </trkpt>
      <trkpt lat="43.46279" lon="3.67469">
        <ele>3.501953125</ele>
        <time>2011-05-12T09:27:35Z</time>
      </trkpt>
      <trkpt lat="43.46282" lon="3.67469">
        <ele>3.501953125</ele>
        <time>2011-05-12T09:27:36Z</time>
      </trkpt>
      <trkpt lat="43.46286" lon="3.67452">
        <ele>4.4632568359375</ele>
        <time>2011-05-12T09:27:41Z</time>
      </trkpt>
      <trkpt lat="43.46283" lon="3.6745">
        <ele>4.4632568359375</ele>
        <time>2011-05-12T09:27:45Z</time>
      </trkpt>
      <trkpt lat="43.4628" lon="3.6745">
        <ele>4.4632568359375</ele>
        <time>2011-05-12T09:27:57Z</time>
      </trkpt>
      <trkpt lat="43.46265" lon="3.67449">
        <ele>4.94384765625</ele>
        <time>2011-05-12T09:28:02Z</time>
      </trkpt>
      <trkpt lat="43.46264" lon="3.67449">
        <ele>4.4632568359375</ele>
        <time>2011-05-12T09:28:05Z</time>
      </trkpt>
      <trkpt lat="43.46268" lon="3.67453">
        <ele>4.4632568359375</ele>
        <time>2011-05-12T09:28:34Z</time>
      </trkpt>
      <trkpt lat="43.46267" lon="3.67453">
        <ele>3.982666015625</ele>
        <time>2011-05-12T09:28:35Z</time>
      </trkpt>
      <trkpt lat="43.46257" lon="3.6745">
        <ele>4.94384765625</ele>
        <time>2011-05-12T09:28:40Z</time>
      </trkpt>
      <trkpt lat="43.46242" lon="3.67438">
        <ele>5.424560546875</ele>
        <time>2011-05-12T09:28:45Z</time>
      </trkpt>
      <trkpt lat="43.46229" lon="3.67412">
        <ele>5.424560546875</ele>
        <time>2011-05-12T09:28:51Z</time>
      </trkpt>
      <trkpt lat="43.46222" lon="3.67377">
        <ele>4.94384765625</ele>
        <time>2011-05-12T09:28:58Z</time>
      </trkpt>
      <trkpt lat="43.46214" lon="3.67354">
        <ele>4.94384765625</ele>
        <time>2011-05-12T09:29:02Z</time>
      </trkpt>
      <trkpt lat="43.46209" lon="3.67344">
        <ele>4.94384765625</ele>
        <time>2011-05-12T09:29:04Z</time>
      </trkpt>
      <trkpt lat="43.46187" lon="3.67315">
        <ele>4.4632568359375</ele>
        <time>2011-05-12T09:29:11Z</time>
      </trkpt>
      <trkpt lat="43.46159" lon="3.67295">
        <ele>5.9052734375</ele>
        <time>2011-05-12T09:29:19Z</time>
      </trkpt>
      <trkpt lat="43.46133" lon="3.67279">
        <ele>5.424560546875</ele>
        <time>2011-05-12T09:29:28Z</time>
      </trkpt>
      <trkpt lat="43.4611" lon="3.6727">
        <ele>4.94384765625</ele>
        <time>2011-05-12T09:29:36Z</time>
      </trkpt>
      <trkpt lat="43.46096" lon="3.67267">
        <ele>4.94384765625</ele>
        <time>2011-05-12T09:29:42Z</time>
      </trkpt>
      <trkpt lat="43.4608" lon="3.67261">
        <ele>4.94384765625</ele>
        <time>2011-05-12T09:29:49Z</time>
      </trkpt>
      <trkpt lat="43.46069" lon="3.67253">
        <ele>5.424560546875</ele>
        <time>2011-05-12T09:29:55Z</time>
      </trkpt>
      <trkpt lat="43.46062" lon="3.67239">
        <ele>4.94384765625</ele>
        <time>2011-05-12T09:30:01Z</time>
      </trkpt>
      <trkpt lat="43.4606" lon="3.67236">
        <ele>5.424560546875</ele>
        <time>2011-05-12T09:30:04Z</time>
      </trkpt>
      <trkpt lat="43.46059" lon="3.67232">
        <ele>4.94384765625</ele>
        <time>2011-05-12T09:30:52Z</time>
      </trkpt>
      <trkpt lat="43.46052" lon="3.6722">
        <ele>5.424560546875</ele>
        <time>2011-05-12T09:30:56Z</time>
      </trkpt>
      <trkpt lat="43.46041" lon="3.67195">
        <ele>4.4632568359375</ele>
        <time>2011-05-12T09:31:03Z</time>
      </trkpt>
      <trkpt lat="43.46029" lon="3.6717">
        <ele>4.94384765625</ele>
        <time>2011-05-12T09:31:10Z</time>
      </trkpt>
      <trkpt lat="43.46016" lon="3.67145">
        <ele>3.982666015625</ele>
        <time>2011-05-12T09:31:17Z</time>
      </trkpt>
      <trkpt lat="43.45994" lon="3.67122">
        <ele>3.982666015625</ele>
        <time>2011-05-12T09:31:25Z</time>
      </trkpt>
      <trkpt lat="43.45976" lon="3.67099">
        <ele>3.982666015625</ele>
        <time>2011-05-12T09:31:33Z</time>
      </trkpt>
      <trkpt lat="43.4597" lon="3.67095">
        <ele>4.4632568359375</ele>
        <time>2011-05-12T09:31:35Z</time>
      </trkpt>
      <trkpt lat="43.45956" lon="3.67104">
        <ele>4.94384765625</ele>
        <time>2011-05-12T09:31:40Z</time>
      </trkpt>
      <trkpt lat="43.45937" lon="3.67123">
        <ele>4.4632568359375</ele>
        <time>2011-05-12T09:31:48Z</time>
      </trkpt>
      <trkpt lat="43.45934" lon="3.67123">
        <ele>3.501953125</ele>
        <time>2011-05-12T09:31:52Z</time>
      </trkpt>
      <trkpt lat="43.45942" lon="3.67126">
        <ele>3.501953125</ele>
        <time>2011-05-12T09:37:50Z</time>
      </trkpt>
      <trkpt lat="43.45942" lon="3.67127">
        <ele>4.4632568359375</ele>
        <time>2011-05-12T09:37:53Z</time>
      </trkpt>
      <trkpt lat="43.45943" lon="3.67127">
        <ele>3.982666015625</ele>
        <time>2011-05-12T09:37:57Z</time>
      </trkpt>
      <trkpt lat="43.45945" lon="3.67126">
        <ele>3.982666015625</ele>
        <time>2011-05-12T09:38:00Z</time>
      </trkpt>
      <trkpt lat="43.45945" lon="3.67126">
        <ele>4.4632568359375</ele>
        <time>2011-05-12T09:38:03Z</time>
      </trkpt>
      <trkpt lat="43.45955" lon="3.6712">
        <ele>3.501953125</ele>
        <time>2011-05-12T09:38:08Z</time>
      </trkpt>
      <trkpt lat="43.45963" lon="3.67109">
        <ele>3.982666015625</ele>
        <time>2011-05-12T09:38:14Z</time>
      </trkpt>
      <trkpt lat="43.45975" lon="3.671">
        <ele>3.501953125</ele>
        <time>2011-05-12T09:38:20Z</time>
      </trkpt>
      <trkpt lat="43.45988" lon="3.67115">
        <ele>3.501953125</ele>
        <time>2011-05-12T09:38:27Z</time>
      </trkpt>
      <trkpt lat="43.46002" lon="3.67133">
        <ele>3.982666015625</ele>
        <time>2011-05-12T09:38:35Z</time>
      </trkpt>
      <trkpt lat="43.4602" lon="3.67151">
        <ele>3.982666015625</ele>
        <time>2011-05-12T09:38:44Z</time>
      </trkpt>
      <trkpt lat="43.46033" lon="3.67173">
        <ele>3.982666015625</ele>
        <time>2011-05-12T09:38:52Z</time>
      </trkpt>
      <trkpt lat="43.46047" lon="3.67203">
        <ele>3.982666015625</ele>
        <time>2011-05-12T09:39:02Z</time>
      </trkpt>
      <trkpt lat="43.46055" lon="3.67219">
        <ele>4.94384765625</ele>
        <time>2011-05-12T09:39:08Z</time>
      </trkpt>
      <trkpt lat="43.46064" lon="3.67241">
        <ele>4.94384765625</ele>
        <time>2011-05-12T09:39:15Z</time>
      </trkpt>
      <trkpt lat="43.46077" lon="3.67261">
        <ele>4.4632568359375</ele>
        <time>2011-05-12T09:39:22Z</time>
      </trkpt>
      <trkpt lat="43.46096" lon="3.67268">
        <ele>4.4632568359375</ele>
        <time>2011-05-12T09:39:29Z</time>
      </trkpt>
      <trkpt lat="43.46113" lon="3.67272">
        <ele>4.4632568359375</ele>
        <time>2011-05-12T09:39:35Z</time>
      </trkpt>
      <trkpt lat="43.46132" lon="3.67277">
        <ele>3.982666015625</ele>
        <time>2011-05-12T09:39:41Z</time>
      </trkpt>
      <trkpt lat="43.46146" lon="3.67286">
        <ele>4.4632568359375</ele>
        <time>2011-05-12T09:39:46Z</time>
      </trkpt>
      <trkpt lat="43.46168" lon="3.67298">
        <ele>4.4632568359375</ele>
        <time>2011-05-12T09:39:54Z</time>
      </trkpt>
      <trkpt lat="43.46185" lon="3.67314">
        <ele>3.982666015625</ele>
        <time>2011-05-12T09:40:01Z</time>
      </trkpt>
      <trkpt lat="43.462" lon="3.6733">
        <ele>3.982666015625</ele>
        <time>2011-05-12T09:40:08Z</time>
      </trkpt>
      <trkpt lat="43.46215" lon="3.67354">
        <ele>3.982666015625</ele>
        <time>2011-05-12T09:40:16Z</time>
      </trkpt>
      <trkpt lat="43.46223" lon="3.67374">
        <ele>3.982666015625</ele>
        <time>2011-05-12T09:40:22Z</time>
      </trkpt>
      <trkpt lat="43.46227" lon="3.67397">
        <ele>3.982666015625</ele>
        <time>2011-05-12T09:40:28Z</time>
      </trkpt>
      <trkpt lat="43.46233" lon="3.67418">
        <ele>4.4632568359375</ele>
        <time>2011-05-12T09:40:34Z</time>
      </trkpt>
      <trkpt lat="43.46243" lon="3.67438">
        <ele>3.982666015625</ele>
        <time>2011-05-12T09:40:40Z</time>
      </trkpt>
      <trkpt lat="43.46257" lon="3.6745">
        <ele>3.501953125</ele>
        <time>2011-05-12T09:40:46Z</time>
      </trkpt>
      <trkpt lat="43.46278" lon="3.67454">
        <ele>3.501953125</ele>
        <time>2011-05-12T09:40:53Z</time>
      </trkpt>
      <trkpt lat="43.46292" lon="3.67461">
        <ele>3.501953125</ele>
        <time>2011-05-12T09:40:58Z</time>
      </trkpt>
      <trkpt lat="43.46304" lon="3.67459">
        <ele>3.501953125</ele>
        <time>2011-05-12T09:41:03Z</time>
      </trkpt>
      <trkpt lat="43.46305" lon="3.67451">
        <ele>4.4632568359375</ele>
        <time>2011-05-12T09:41:07Z</time>
      </trkpt>
      <trkpt lat="43.46302" lon="3.67449">
        <ele>3.982666015625</ele>
        <time>2011-05-12T09:41:11Z</time>
      </trkpt>
      <trkpt lat="43.46301" lon="3.67455">
        <ele>3.982666015625</ele>
        <time>2011-05-12T09:41:15Z</time>
      </trkpt>
      <trkpt lat="43.463" lon="3.67472">
        <ele>3.982666015625</ele>
        <time>2011-05-12T09:41:21Z</time>
      </trkpt>
      <trkpt lat="43.46299" lon="3.67478">
        <ele>3.501953125</ele>
        <time>2011-05-12T09:41:23Z</time>
      </trkpt>
      <trkpt lat="43.46304" lon="3.6749">
        <ele>3.501953125</ele>
        <time>2011-05-12T09:41:27Z</time>
      </trkpt>
      <trkpt lat="43.46322" lon="3.67511">
        <ele>3.501953125</ele>
        <time>2011-05-12T09:41:35Z</time>
      </trkpt>
      <trkpt lat="43.46324" lon="3.67534">
        <ele>3.982666015625</ele>
        <time>2011-05-12T09:41:41Z</time>
      </trkpt>
      <trkpt lat="43.46328" lon="3.67566">
        <ele>4.94384765625</ele>
        <time>2011-05-12T09:41:49Z</time>
      </trkpt>
      <trkpt lat="43.46325" lon="3.67593">
        <ele>3.982666015625</ele>
        <time>2011-05-12T09:41:56Z</time>
      </trkpt>
      <trkpt lat="43.46326" lon="3.6762">
        <ele>4.94384765625</ele>
        <time>2011-05-12T09:42:02Z</time>
      </trkpt>
      <trkpt lat="43.46334" lon="3.67641">
        <ele>3.982666015625</ele>
        <time>2011-05-12T09:42:07Z</time>
      </trkpt>
      <trkpt lat="43.46349" lon="3.67671">
        <ele>3.982666015625</ele>
        <time>2011-05-12T09:42:14Z</time>
      </trkpt>
      <trkpt lat="43.4636" lon="3.67702">
        <ele>4.94384765625</ele>
        <time>2011-05-12T09:42:20Z</time>
      </trkpt>
      <trkpt lat="43.46364" lon="3.67732">
        <ele>5.424560546875</ele>
        <time>2011-05-12T09:42:26Z</time>
      </trkpt>
      <trkpt lat="43.46367" lon="3.67769">
        <ele>5.424560546875</ele>
        <time>2011-05-12T09:42:33Z</time>
      </trkpt>
      <trkpt lat="43.46363" lon="3.67812">
        <ele>4.94384765625</ele>
        <time>2011-05-12T09:42:41Z</time>
      </trkpt>
      <trkpt lat="43.46359" lon="3.67858">
        <ele>5.424560546875</ele>
        <time>2011-05-12T09:42:50Z</time>
      </trkpt>
      <trkpt lat="43.46359" lon="3.67863">
        <ele>4.94384765625</ele>
        <time>2011-05-12T09:42:51Z</time>
      </trkpt>
      <trkpt lat="43.4635" lon="3.67886">
        <ele>4.4632568359375</ele>
        <time>2011-05-12T09:42:56Z</time>
      </trkpt>
      <trkpt lat="43.46347" lon="3.67889">
        <ele>5.424560546875</ele>
        <time>2011-05-12T09:42:57Z</time>
      </trkpt>
      <trkpt lat="43.4632" lon="3.67916">
        <ele>5.424560546875</ele>
        <time>2011-05-12T09:43:06Z</time>
      </trkpt>
      <trkpt lat="43.463" lon="3.67948">
        <ele>5.424560546875</ele>
        <time>2011-05-12T09:43:14Z</time>
      </trkpt>
      <trkpt lat="43.46282" lon="3.67976">
        <ele>5.424560546875</ele>
        <time>2011-05-12T09:43:21Z</time>
      </trkpt>
      <trkpt lat="43.46258" lon="3.68008">
        <ele>4.94384765625</ele>
        <time>2011-05-12T09:43:30Z</time>
      </trkpt>
      <trkpt lat="43.46235" lon="3.68042">
        <ele>4.4632568359375</ele>
        <time>2011-05-12T09:43:39Z</time>
      </trkpt>
      <trkpt lat="43.46209" lon="3.68073">
        <ele>4.4632568359375</ele>
        <time>2011-05-12T09:43:48Z</time>
      </trkpt>
      <trkpt lat="43.46182" lon="3.68092">
        <ele>4.94384765625</ele>
        <time>2011-05-12T09:43:56Z</time>
      </trkpt>
      <trkpt lat="43.46143" lon="3.68119">
        <ele>4.94384765625</ele>
        <time>2011-05-12T09:44:08Z</time>
      </trkpt>
      <trkpt lat="43.4613" lon="3.68142">
        <ele>4.94384765625</ele>
        <time>2011-05-12T09:44:14Z</time>
      </trkpt>
      <trkpt lat="43.46119" lon="3.68167">
        <ele>4.4632568359375</ele>
        <time>2011-05-12T09:44:20Z</time>
      </trkpt>
      <trkpt lat="43.46106" lon="3.68202">
        <ele>4.4632568359375</ele>
        <time>2011-05-12T09:44:28Z</time>
      </trkpt>
      <trkpt lat="43.46091" lon="3.68247">
        <ele>3.501953125</ele>
        <time>2011-05-12T09:44:38Z</time>
      </trkpt>
      <trkpt lat="43.46088" lon="3.68284">
        <ele>3.982666015625</ele>
        <time>2011-05-12T09:44:46Z</time>
      </trkpt>
      <trkpt lat="43.46086" lon="3.68314">
        <ele>4.4632568359375</ele>
        <time>2011-05-12T09:44:53Z</time>
      </trkpt>
      <trkpt lat="43.46079" lon="3.68335">
        <ele>4.4632568359375</ele>
        <time>2011-05-12T09:44:59Z</time>
      </trkpt>
      <trkpt lat="43.46078" lon="3.68339">
        <ele>4.4632568359375</ele>
        <time>2011-05-12T09:45:00Z</time>
      </trkpt>
      <trkpt lat="43.46086" lon="3.68353">
        <ele>4.4632568359375</ele>
        <time>2011-05-12T09:45:05Z</time>
      </trkpt>
      <trkpt lat="43.46088" lon="3.68356">
        <ele>4.4632568359375</ele>
        <time>2011-05-12T09:45:06Z</time>
      </trkpt>
      <trkpt lat="43.461" lon="3.68381">
        <ele>4.94384765625</ele>
        <time>2011-05-12T09:45:13Z</time>
      </trkpt>
      <trkpt lat="43.46113" lon="3.68397">
        <ele>5.9052734375</ele>
        <time>2011-05-12T09:45:18Z</time>
      </trkpt>
      <trkpt lat="43.46135" lon="3.68421">
        <ele>6.866455078125</ele>
        <time>2011-05-12T09:45:27Z</time>
      </trkpt>
      <trkpt lat="43.46149" lon="3.68438">
        <ele>5.424560546875</ele>
        <time>2011-05-12T09:45:33Z</time>
      </trkpt>
      <trkpt lat="43.46152" lon="3.6844">
        <ele>5.424560546875</ele>
        <time>2011-05-12T09:45:34Z</time>
      </trkpt>
      <trkpt lat="43.46156" lon="3.68442">
        <ele>5.9052734375</ele>
        <time>2011-05-12T09:45:35Z</time>
      </trkpt>
      <trkpt lat="43.4618" lon="3.68461">
        <ele>4.94384765625</ele>
        <time>2011-05-12T09:45:42Z</time>
      </trkpt>
      <trkpt lat="43.46196" lon="3.68473">
        <ele>5.424560546875</ele>
        <time>2011-05-12T09:45:46Z</time>
      </trkpt>
      <trkpt lat="43.46218" lon="3.68478">
        <ele>5.424560546875</ele>
        <time>2011-05-12T09:45:51Z</time>
      </trkpt>
      <trkpt lat="43.46257" lon="3.68479">
        <ele>5.424560546875</ele>
        <time>2011-05-12T09:45:59Z</time>
      </trkpt>
      <trkpt lat="43.46295" lon="3.68477">
        <ele>5.9052734375</ele>
        <time>2011-05-12T09:46:07Z</time>
      </trkpt>
      <trkpt lat="43.46333" lon="3.68478">
        <ele>5.9052734375</ele>
        <time>2011-05-12T09:46:15Z</time>
      </trkpt>
      <trkpt lat="43.46376" lon="3.68477">
        <ele>6.3858642578125</ele>
        <time>2011-05-12T09:46:24Z</time>
      </trkpt>
      <trkpt lat="43.46409" lon="3.68472">
        <ele>6.3858642578125</ele>
        <time>2011-05-12T09:46:31Z</time>
      </trkpt>
      <trkpt lat="43.46447" lon="3.68466">
        <ele>6.3858642578125</ele>
        <time>2011-05-12T09:46:39Z</time>
      </trkpt>
      <trkpt lat="43.46494" lon="3.6846">
        <ele>6.3858642578125</ele>
        <time>2011-05-12T09:46:49Z</time>
      </trkpt>
      <trkpt lat="43.4653" lon="3.68456">
        <ele>6.866455078125</ele>
        <time>2011-05-12T09:46:57Z</time>
      </trkpt>
      <trkpt lat="43.46536" lon="3.68457">
        <ele>6.866455078125</ele>
        <time>2011-05-12T09:47:00Z</time>
      </trkpt>
      <trkpt lat="43.46536" lon="3.68458">
        <ele>7.34716796875</ele>
        <time>2011-05-12T09:47:01Z</time>
      </trkpt>
      <trkpt lat="43.4654" lon="3.68461">
        <ele>6.3858642578125</ele>
        <time>2011-05-12T09:47:31Z</time>
      </trkpt>
      <trkpt lat="43.46541" lon="3.6846">
        <ele>6.3858642578125</ele>
        <time>2011-05-12T09:47:32Z</time>
      </trkpt>
      <trkpt lat="43.46551" lon="3.68459">
        <ele>5.9052734375</ele>
        <time>2011-05-12T09:47:37Z</time>
      </trkpt>
      <trkpt lat="43.46575" lon="3.6846">
        <ele>6.3858642578125</ele>
        <time>2011-05-12T09:47:44Z</time>
      </trkpt>
      <trkpt lat="43.46604" lon="3.68466">
        <ele>6.3858642578125</ele>
        <time>2011-05-12T09:47:52Z</time>
      </trkpt>
      <trkpt lat="43.4663" lon="3.68478">
        <ele>6.3858642578125</ele>
        <time>2011-05-12T09:47:59Z</time>
      </trkpt>
      <trkpt lat="43.46654" lon="3.68494">
        <ele>6.3858642578125</ele>
        <time>2011-05-12T09:48:06Z</time>
      </trkpt>
      <trkpt lat="43.46682" lon="3.68513">
        <ele>6.3858642578125</ele>
        <time>2011-05-12T09:48:14Z</time>
      </trkpt>
      <trkpt lat="43.46706" lon="3.68532">
        <ele>6.866455078125</ele>
        <time>2011-05-12T09:48:21Z</time>
      </trkpt>
      <trkpt lat="43.46727" lon="3.68557">
        <ele>8.30859375</ele>
        <time>2011-05-12T09:48:28Z</time>
      </trkpt>
      <trkpt lat="43.46749" lon="3.68583">
        <ele>10.231201171875</ele>
        <time>2011-05-12T09:48:36Z</time>
      </trkpt>
      <trkpt lat="43.46764" lon="3.68586">
        <ele>10.231201171875</ele>
        <time>2011-05-12T09:48:40Z</time>
      </trkpt>
      <trkpt lat="43.46788" lon="3.68578">
        <ele>9.7506103515625</ele>
        <time>2011-05-12T09:48:46Z</time>
      </trkpt>
      <trkpt lat="43.46813" lon="3.68564">
        <ele>8.7891845703125</ele>
        <time>2011-05-12T09:48:51Z</time>
      </trkpt>
      <trkpt lat="43.46829" lon="3.68553">
        <ele>8.30859375</ele>
        <time>2011-05-12T09:48:54Z</time>
      </trkpt>
      <trkpt lat="43.46861" lon="3.68518">
        <ele>7.827880859375</ele>
        <time>2011-05-12T09:49:01Z</time>
      </trkpt>
      <trkpt lat="43.4689" lon="3.68482">
        <ele>7.827880859375</ele>
        <time>2011-05-12T09:49:09Z</time>
      </trkpt>
      <trkpt lat="43.46905" lon="3.68463">
        <ele>7.34716796875</ele>
        <time>2011-05-12T09:49:15Z</time>
      </trkpt>
      <trkpt lat="43.46906" lon="3.68462">
        <ele>7.827880859375</ele>
        <time>2011-05-12T09:49:16Z</time>
      </trkpt>
      <trkpt lat="43.46902" lon="3.68461">
        <ele>7.827880859375</ele>
        <time>2011-05-12T09:49:20Z</time>
      </trkpt>
      <trkpt lat="43.46897" lon="3.68473">
        <ele>7.34716796875</ele>
        <time>2011-05-12T09:49:25Z</time>
      </trkpt>
      <trkpt lat="43.46898" lon="3.68475">
        <ele>6.866455078125</ele>
        <time>2011-05-12T09:49:28Z</time>
      </trkpt>
      <trkpt lat="43.46895" lon="3.68474">
        <ele>6.866455078125</ele>
        <time>2011-05-12T09:50:06Z</time>
      </trkpt>
      <trkpt lat="43.46894" lon="3.68473">
        <ele>6.866455078125</ele>
        <time>2011-05-12T09:50:08Z</time>
      </trkpt>
      <trkpt lat="43.46898" lon="3.68467">
        <ele>7.827880859375</ele>
        <time>2011-05-12T09:50:14Z</time>
      </trkpt>
      <trkpt lat="43.469" lon="3.68467">
        <ele>8.30859375</ele>
        <time>2011-05-12T09:50:40Z</time>
      </trkpt>
      <trkpt lat="43.46904" lon="3.68461">
        <ele>7.827880859375</ele>
        <time>2011-05-12T09:50:44Z</time>
      </trkpt>
      <trkpt lat="43.46909" lon="3.68457">
        <ele>7.827880859375</ele>
        <time>2011-05-12T09:50:52Z</time>
      </trkpt>
      <trkpt lat="43.4691" lon="3.68456">
        <ele>7.827880859375</ele>
        <time>2011-05-12T09:50:56Z</time>
      </trkpt>
      <trkpt lat="43.46911" lon="3.68455">
        <ele>8.30859375</ele>
        <time>2011-05-12T09:51:06Z</time>
      </trkpt>
      <trkpt lat="43.46917" lon="3.68446">
        <ele>7.34716796875</ele>
        <time>2011-05-12T09:51:13Z</time>
      </trkpt>
      <trkpt lat="43.46926" lon="3.68435">
        <ele>7.827880859375</ele>
        <time>2011-05-12T09:51:20Z</time>
      </trkpt>
      <trkpt lat="43.4694" lon="3.68415">
        <ele>7.827880859375</ele>
        <time>2011-05-12T09:51:26Z</time>
      </trkpt>
      <trkpt lat="43.4696" lon="3.68383">
        <ele>7.827880859375</ele>
        <time>2011-05-12T09:51:33Z</time>
      </trkpt>
      <trkpt lat="43.46991" lon="3.6834">
        <ele>9.2698974609375</ele>
        <time>2011-05-12T09:51:42Z</time>
      </trkpt>
      <trkpt lat="43.47003" lon="3.68323">
        <ele>9.2698974609375</ele>
        <time>2011-05-12T09:51:46Z</time>
      </trkpt>
      <trkpt lat="43.47018" lon="3.68296">
        <ele>9.7506103515625</ele>
        <time>2011-05-12T09:51:53Z</time>
      </trkpt>
      <trkpt lat="43.47019" lon="3.68285">
        <ele>9.7506103515625</ele>
        <time>2011-05-12T09:51:58Z</time>
      </trkpt>
      <trkpt lat="43.47018" lon="3.68279">
        <ele>9.7506103515625</ele>
        <time>2011-05-12T09:52:03Z</time>
      </trkpt>
      <trkpt lat="43.47017" lon="3.68279">
        <ele>9.2698974609375</ele>
        <time>2011-05-12T09:52:15Z</time>
      </trkpt>
      <trkpt lat="43.47014" lon="3.68266">
        <ele>9.2698974609375</ele>
        <time>2011-05-12T09:52:19Z</time>
      </trkpt>
      <trkpt lat="43.47013" lon="3.68261">
        <ele>8.7891845703125</ele>
        <time>2011-05-12T09:52:20Z</time>
      </trkpt>
      <trkpt lat="43.47004" lon="3.68222">
        <ele>9.2698974609375</ele>
        <time>2011-05-12T09:52:27Z</time>
      </trkpt>
      <trkpt lat="43.46997" lon="3.6819">
        <ele>8.7891845703125</ele>
        <time>2011-05-12T09:52:32Z</time>
      </trkpt>
      <trkpt lat="43.46975" lon="3.68133">
        <ele>7.827880859375</ele>
        <time>2011-05-12T09:52:41Z</time>
      </trkpt>
      <trkpt lat="43.46966" lon="3.68115">
        <ele>7.827880859375</ele>
        <time>2011-05-12T09:52:44Z</time>
      </trkpt>
      <trkpt lat="43.46953" lon="3.68098">
        <ele>7.827880859375</ele>
        <time>2011-05-12T09:52:49Z</time>
      </trkpt>
      <trkpt lat="43.46947" lon="3.68089">
        <ele>7.827880859375</ele>
        <time>2011-05-12T09:52:54Z</time>
      </trkpt>
      <trkpt lat="43.46935" lon="3.68072">
        <ele>7.34716796875</ele>
        <time>2011-05-12T09:53:00Z</time>
      </trkpt>
      <trkpt lat="43.46917" lon="3.68048">
        <ele>6.866455078125</ele>
        <time>2011-05-12T09:53:06Z</time>
      </trkpt>
      <trkpt lat="43.46895" lon="3.68022">
        <ele>7.34716796875</ele>
        <time>2011-05-12T09:53:13Z</time>
      </trkpt>
      <trkpt lat="43.46884" lon="3.6801">
        <ele>7.827880859375</ele>
        <time>2011-05-12T09:53:18Z</time>
      </trkpt>
      <trkpt lat="43.46878" lon="3.67988">
        <ele>7.34716796875</ele>
        <time>2011-05-12T09:53:25Z</time>
      </trkpt>
      <trkpt lat="43.46879" lon="3.67983">
        <ele>7.827880859375</ele>
        <time>2011-05-12T09:53:29Z</time>
      </trkpt>
      <trkpt lat="43.46881" lon="3.67984">
        <ele>6.3858642578125</ele>
        <time>2011-05-12T09:55:16Z</time>
      </trkpt>
      <trkpt lat="43.46881" lon="3.67984">
        <ele>6.866455078125</ele>
        <time>2011-05-12T09:55:17Z</time>
      </trkpt>
      <trkpt lat="43.46874" lon="3.67981">
        <ele>6.866455078125</ele>
        <time>2011-05-12T09:55:21Z</time>
      </trkpt>
      <trkpt lat="43.4687" lon="3.67982">
        <ele>6.866455078125</ele>
        <time>2011-05-12T09:55:23Z</time>
      </trkpt>
      <trkpt lat="43.46868" lon="3.67977">
        <ele>6.3858642578125</ele>
        <time>2011-05-12T09:55:27Z</time>
      </trkpt>
      <trkpt lat="43.4687" lon="3.67982">
        <ele>7.34716796875</ele>
        <time>2011-05-12T09:55:31Z</time>
      </trkpt>
      <trkpt lat="43.46864" lon="3.67977">
        <ele>6.3858642578125</ele>
        <time>2011-05-12T09:55:35Z</time>
      </trkpt>
      <trkpt lat="43.46859" lon="3.67967">
        <ele>6.866455078125</ele>
        <time>2011-05-12T09:55:39Z</time>
      </trkpt>
      <trkpt lat="43.46833" lon="3.67934">
        <ele>6.3858642578125</ele>
        <time>2011-05-12T09:55:49Z</time>
      </trkpt>
      <trkpt lat="43.4681" lon="3.67909">
        <ele>5.9052734375</ele>
        <time>2011-05-12T09:55:57Z</time>
      </trkpt>
      <trkpt lat="43.4679" lon="3.67883">
        <ele>6.3858642578125</ele>
        <time>2011-05-12T09:56:05Z</time>
      </trkpt>
      <trkpt lat="43.46785" lon="3.67884">
        <ele>6.3858642578125</ele>
        <time>2011-05-12T09:56:09Z</time>
      </trkpt>
      <trkpt lat="43.4679" lon="3.67895">
        <ele>5.424560546875</ele>
        <time>2011-05-12T09:56:15Z</time>
      </trkpt>
      <trkpt lat="43.46795" lon="3.679">
        <ele>4.94384765625</ele>
        <time>2011-05-12T09:56:17Z</time>
      </trkpt>
      <trkpt lat="43.46811" lon="3.67921">
        <ele>5.424560546875</ele>
        <time>2011-05-12T09:56:23Z</time>
      </trkpt>
      <trkpt lat="43.4682" lon="3.67931">
        <ele>5.424560546875</ele>
        <time>2011-05-12T09:56:26Z</time>
      </trkpt>
      <trkpt lat="43.46819" lon="3.67943">
        <ele>5.9052734375</ele>
        <time>2011-05-12T09:56:31Z</time>
      </trkpt>
      <trkpt lat="43.46817" lon="3.67946">
        <ele>4.94384765625</ele>
        <time>2011-05-12T09:56:34Z</time>
      </trkpt>
      <trkpt lat="43.46817" lon="3.67947">
        <ele>4.94384765625</ele>
        <time>2011-05-12T09:56:39Z</time>
      </trkpt>
      <trkpt lat="43.46815" lon="3.67948">
        <ele>4.4632568359375</ele>
        <time>2011-05-12T09:56:40Z</time>
      </trkpt>
      <trkpt lat="43.46814" lon="3.67943">
        <ele>4.4632568359375</ele>
        <time>2011-05-12T09:56:44Z</time>
      </trkpt>
      <trkpt lat="43.46823" lon="3.67936">
        <ele>4.94384765625</ele>
        <time>2011-05-12T09:56:49Z</time>
      </trkpt>
      <trkpt lat="43.46824" lon="3.67925">
        <ele>5.424560546875</ele>
        <time>2011-05-12T09:56:53Z</time>
      </trkpt>
      <trkpt lat="43.46822" lon="3.67921">
        <ele>5.9052734375</ele>
        <time>2011-05-12T09:56:55Z</time>
      </trkpt>
      <trkpt lat="43.46811" lon="3.67903">
        <ele>5.9052734375</ele>
        <time>2011-05-12T09:57:00Z</time>
      </trkpt>
      <trkpt lat="43.4679" lon="3.67878">
        <ele>5.9052734375</ele>
        <time>2011-05-12T09:57:06Z</time>
      </trkpt>
      <trkpt lat="43.46762" lon="3.67848">
        <ele>5.9052734375</ele>
        <time>2011-05-12T09:57:13Z</time>
      </trkpt>
      <trkpt lat="43.46734" lon="3.67813">
        <ele>5.9052734375</ele>
        <time>2011-05-12T09:57:20Z</time>
      </trkpt>
      <trkpt lat="43.46704" lon="3.67776">
        <ele>5.424560546875</ele>
        <time>2011-05-12T09:57:27Z</time>
      </trkpt>
      <trkpt lat="43.46688" lon="3.67754">
        <ele>5.424560546875</ele>
        <time>2011-05-12T09:57:31Z</time>
      </trkpt>
      <trkpt lat="43.4667" lon="3.67729">
        <ele>4.94384765625</ele>
        <time>2011-05-12T09:57:36Z</time>
      </trkpt>
      <trkpt lat="43.46662" lon="3.6772">
        <ele>4.94384765625</ele>
        <time>2011-05-12T09:57:38Z</time>
      </trkpt>
      <trkpt lat="43.46645" lon="3.67695">
        <ele>4.4632568359375</ele>
        <time>2011-05-12T09:57:44Z</time>
      </trkpt>
      <trkpt lat="43.46637" lon="3.67684">
        <ele>4.4632568359375</ele>
        <time>2011-05-12T09:57:48Z</time>
      </trkpt>
      <trkpt lat="43.4663" lon="3.67674">
        <ele>3.982666015625</ele>
        <time>2011-05-12T09:57:54Z</time>
      </trkpt>
      <trkpt lat="43.46629" lon="3.67671">
        <ele>3.982666015625</ele>
        <time>2011-05-12T09:57:58Z</time>
      </trkpt>
      <trkpt lat="43.46628" lon="3.67668">
        <ele>3.982666015625</ele>
        <time>2011-05-12T09:58:01Z</time>
      </trkpt>
      <trkpt lat="43.4663" lon="3.67669">
        <ele>4.4632568359375</ele>
        <time>2011-05-12T09:58:49Z</time>
      </trkpt>
      <trkpt lat="43.4663" lon="3.6767">
        <ele>4.4632568359375</ele>
        <time>2011-05-12T09:58:52Z</time>
      </trkpt>
      <trkpt lat="43.46631" lon="3.67667">
        <ele>4.94384765625</ele>
        <time>2011-05-12T09:59:08Z</time>
      </trkpt>
      <trkpt lat="43.46622" lon="3.67658">
        <ele>3.982666015625</ele>
        <time>2011-05-12T09:59:12Z</time>
      </trkpt>
      <trkpt lat="43.46608" lon="3.67643">
        <ele>4.4632568359375</ele>
        <time>2011-05-12T09:59:18Z</time>
      </trkpt>
      <trkpt lat="43.46592" lon="3.67623">
        <ele>4.94384765625</ele>
        <time>2011-05-12T09:59:24Z</time>
      </trkpt>
      <trkpt lat="43.46576" lon="3.67602">
        <ele>3.982666015625</ele>
        <time>2011-05-12T09:59:29Z</time>
      </trkpt>
      <trkpt lat="43.46554" lon="3.67578">
        <ele>4.4632568359375</ele>
        <time>2011-05-12T09:59:35Z</time>
      </trkpt>
      <trkpt lat="43.4655" lon="3.67574">
        <ele>4.4632568359375</ele>
        <time>2011-05-12T09:59:36Z</time>
      </trkpt>
      <trkpt lat="43.4652" lon="3.67537">
        <ele>4.94384765625</ele>
        <time>2011-05-12T09:59:44Z</time>
      </trkpt>
      <trkpt lat="43.46493" lon="3.67498">
        <ele>3.982666015625</ele>
        <time>2011-05-12T09:59:52Z</time>
      </trkpt>
      <trkpt lat="43.46467" lon="3.67466">
        <ele>3.982666015625</ele>
        <time>2011-05-12T10:00:00Z</time>
      </trkpt>
      <trkpt lat="43.46437" lon="3.67425">
        <ele>4.4632568359375</ele>
        <time>2011-05-12T10:00:09Z</time>
      </trkpt>
      <trkpt lat="43.46409" lon="3.67394">
        <ele>3.982666015625</ele>
        <time>2011-05-12T10:00:17Z</time>
      </trkpt>
      <trkpt lat="43.46387" lon="3.67371">
        <ele>3.982666015625</ele>
        <time>2011-05-12T10:00:24Z</time>
      </trkpt>
      <trkpt lat="43.46378" lon="3.67354">
        <ele>3.982666015625</ele>
        <time>2011-05-12T10:00:29Z</time>
      </trkpt>
      <trkpt lat="43.46379" lon="3.67349">
        <ele>3.982666015625</ele>
        <time>2011-05-12T10:00:33Z</time>
      </trkpt>
      <trkpt lat="43.46386" lon="3.67346">
        <ele>3.501953125</ele>
        <time>2011-05-12T10:00:40Z</time>
      </trkpt>
      <trkpt lat="43.46387" lon="3.67347">
        <ele>3.982666015625</ele>
        <time>2011-05-12T10:00:41Z</time>
      </trkpt>
      <trkpt lat="43.46384" lon="3.67351">
        <ele>3.982666015625</ele>
        <time>2011-05-12T10:00:47Z</time>
      </trkpt>
      <trkpt lat="43.46381" lon="3.67347">
        <ele>3.982666015625</ele>
        <time>2011-05-12T10:00:52Z</time>
      </trkpt>
      <trkpt lat="43.46381" lon="3.67345">
        <ele>4.4632568359375</ele>
        <time>2011-05-12T10:00:53Z</time>
      </trkpt>
      <trkpt lat="43.46373" lon="3.67338">
        <ele>4.4632568359375</ele>
        <time>2011-05-12T10:00:57Z</time>
      </trkpt>
      <trkpt lat="43.46361" lon="3.67322">
        <ele>3.982666015625</ele>
        <time>2011-05-12T10:01:02Z</time>
      </trkpt>
      <trkpt lat="43.46333" lon="3.67286">
        <ele>3.501953125</ele>
        <time>2011-05-12T10:01:11Z</time>
      </trkpt>
      <trkpt lat="43.46306" lon="3.67252">
        <ele>3.501953125</ele>
        <time>2011-05-12T10:01:19Z</time>
      </trkpt>
      <trkpt lat="43.46279" lon="3.67214">
        <ele>3.982666015625</ele>
        <time>2011-05-12T10:01:27Z</time>
      </trkpt>
      <trkpt lat="43.46249" lon="3.67174">
        <ele>3.021240234375</ele>
        <time>2011-05-12T10:01:36Z</time>
      </trkpt>
      <trkpt lat="43.46236" lon="3.67156">
        <ele>3.021240234375</ele>
        <time>2011-05-12T10:01:41Z</time>
      </trkpt>
      <trkpt lat="43.46236" lon="3.67155">
        <ele>3.021240234375</ele>
        <time>2011-05-12T10:01:42Z</time>
      </trkpt>
      <trkpt lat="43.46236" lon="3.67157">
        <ele>3.501953125</ele>
        <time>2011-05-12T10:02:00Z</time>
      </trkpt>
      <trkpt lat="43.46235" lon="3.67157">
        <ele>3.501953125</ele>
        <time>2011-05-12T10:02:01Z</time>
      </trkpt>
      <trkpt lat="43.4623" lon="3.67151">
        <ele>3.501953125</ele>
        <time>2011-05-12T10:02:05Z</time>
      </trkpt>
      <trkpt lat="43.46216" lon="3.67134">
        <ele>3.021240234375</ele>
        <time>2011-05-12T10:02:12Z</time>
      </trkpt>
      <trkpt lat="43.46194" lon="3.67102">
        <ele>3.021240234375</ele>
        <time>2011-05-12T10:02:20Z</time>
      </trkpt>
      <trkpt lat="43.46165" lon="3.67066">
        <ele>3.021240234375</ele>
        <time>2011-05-12T10:02:29Z</time>
      </trkpt>
      <trkpt lat="43.46141" lon="3.67037">
        <ele>4.4632568359375</ele>
        <time>2011-05-12T10:02:38Z</time>
      </trkpt>
      <trkpt lat="43.4614" lon="3.67034">
        <ele>4.94384765625</ele>
        <time>2011-05-12T10:02:40Z</time>
      </trkpt>
      <trkpt lat="43.46136" lon="3.67032">
        <ele>4.4632568359375</ele>
        <time>2011-05-12T10:02:45Z</time>
      </trkpt>
      <trkpt lat="43.46136" lon="3.67031">
        <ele>4.4632568359375</ele>
        <time>2011-05-12T10:02:54Z</time>
      </trkpt>
      <trkpt lat="43.46137" lon="3.67028">
        <ele>1.579345703125</ele>
        <time>2011-05-12T10:02:57Z</time>
      </trkpt>
      <trkpt lat="43.4614" lon="3.67033">
        <ele>4.4632568359375</ele>
        <time>2011-05-12T10:03:11Z</time>
      </trkpt>
      <trkpt lat="43.4614" lon="3.67035">
        <ele>5.9052734375</ele>
        <time>2011-05-12T10:03:15Z</time>
      </trkpt>
      <trkpt lat="43.4614" lon="3.67036">
        <ele>3.982666015625</ele>
        <time>2011-05-12T10:03:18Z</time>
      </trkpt>
      <trkpt lat="43.4614" lon="3.67036">
        <ele>4.4632568359375</ele>
        <time>2011-05-12T10:03:19Z</time>
      </trkpt>
      <trkpt lat="43.46139" lon="3.67035">
        <ele>4.4632568359375</ele>
        <time>2011-05-12T10:03:21Z</time>
      </trkpt>
      <trkpt lat="43.46137" lon="3.67034">
        <ele>4.4632568359375</ele>
        <time>2011-05-12T10:03:25Z</time>
      </trkpt>
      <trkpt lat="43.46137" lon="3.67034">
        <ele>3.982666015625</ele>
        <time>2011-05-12T10:03:26Z</time>
      </trkpt>
      <trkpt lat="43.46136" lon="3.67034">
        <ele>3.982666015625</ele>
        <time>2011-05-12T10:03:29Z</time>
      </trkpt>
      <trkpt lat="43.46136" lon="3.67032">
        <ele>3.021240234375</ele>
        <time>2011-05-12T10:04:11Z</time>
      </trkpt>
      <trkpt lat="43.46136" lon="3.67031">
        <ele>3.021240234375</ele>
        <time>2011-05-12T10:04:12Z</time>
      </trkpt>
      <trkpt lat="43.46137" lon="3.67032">
        <ele>3.982666015625</ele>
        <time>2011-05-12T10:04:25Z</time>
      </trkpt>
      <trkpt lat="43.46138" lon="3.67029">
        <ele>3.982666015625</ele>
        <time>2011-05-12T10:04:28Z</time>
      </trkpt>
      <trkpt lat="43.4614" lon="3.6703">
        <ele>3.501953125</ele>
        <time>2011-05-12T10:04:47Z</time>
      </trkpt>
      <trkpt lat="43.46139" lon="3.67031">
        <ele>3.021240234375</ele>
        <time>2011-05-12T10:04:48Z</time>
      </trkpt>
      <trkpt lat="43.46139" lon="3.67032">
        <ele>3.982666015625</ele>
        <time>2011-05-12T10:05:12Z</time>
      </trkpt>
      <trkpt lat="43.4614" lon="3.67031">
        <ele>3.501953125</ele>
        <time>2011-05-12T10:05:13Z</time>
      </trkpt>
      <trkpt lat="43.46137" lon="3.67034">
        <ele>3.501953125</ele>
        <time>2011-05-12T10:05:21Z</time>
      </trkpt>
      <trkpt lat="43.46137" lon="3.67033">
        <ele>3.021240234375</ele>
        <time>2011-05-12T10:05:22Z</time>
      </trkpt>
      <trkpt lat="43.46137" lon="3.67031">
        <ele>3.021240234375</ele>
        <time>2011-05-12T10:05:29Z</time>
      </trkpt>
      <trkpt lat="43.46137" lon="3.67031">
        <ele>3.501953125</ele>
        <time>2011-05-12T10:05:31Z</time>
      </trkpt>
      <trkpt lat="43.46138" lon="3.6703">
        <ele>3.021240234375</ele>
        <time>2011-05-12T10:05:34Z</time>
      </trkpt>
      <trkpt lat="43.46138" lon="3.6703">
        <ele>3.501953125</ele>
        <time>2011-05-12T10:05:35Z</time>
      </trkpt>
      <trkpt lat="43.46138" lon="3.6703">
        <ele>4.94384765625</ele>
        <time>2011-05-12T10:05:36Z</time>
      </trkpt>
      <trkpt lat="43.46138" lon="3.6703">
        <ele>3.501953125</ele>
        <time>2011-05-12T10:05:39Z</time>
      </trkpt>
      <trkpt lat="43.46137" lon="3.67029">
        <ele>3.982666015625</ele>
        <time>2011-05-12T10:05:40Z</time>
      </trkpt>
      <trkpt lat="43.46139" lon="3.6703">
        <ele>4.4632568359375</ele>
        <time>2011-05-12T10:05:42Z</time>
      </trkpt>
      <trkpt lat="43.4614" lon="3.67033">
        <ele>4.4632568359375</ele>
        <time>2011-05-12T10:05:46Z</time>
      </trkpt>
      <trkpt lat="43.46139" lon="3.67036">
        <ele>3.982666015625</ele>
        <time>2011-05-12T10:07:41Z</time>
      </trkpt>
      <trkpt lat="43.46139" lon="3.67035">
        <ele>4.4632568359375</ele>
        <time>2011-05-12T10:07:42Z</time>
      </trkpt>
      <trkpt lat="43.46138" lon="3.67034">
        <ele>3.501953125</ele>
        <time>2011-05-12T10:11:36Z</time>
      </trkpt>
      <trkpt lat="43.46138" lon="3.67034">
        <ele>3.982666015625</ele>
        <time>2011-05-12T10:11:37Z</time>
      </trkpt>
      <trkpt lat="43.46138" lon="3.67034">
        <ele>4.4632568359375</ele>
        <time>2011-05-12T10:11:40Z</time>
      </trkpt>
      <trkpt lat="43.46138" lon="3.67035">
        <ele>3.982666015625</ele>
        <time>2011-05-12T10:11:41Z</time>
      </trkpt>
      <trkpt lat="43.46139" lon="3.67035">
        <ele>4.4632568359375</ele>
        <time>2011-05-12T10:11:44Z</time>
      </trkpt>
      <trkpt lat="43.46145" lon="3.67041">
        <ele>3.501953125</ele>
        <time>2011-05-12T10:11:45Z</time>
      </trkpt>
      <trkpt lat="43.46164" lon="3.67064">
        <ele>3.501953125</ele>
        <time>2011-05-12T10:11:52Z</time>
      </trkpt>
      <trkpt lat="43.46181" lon="3.67086">
        <ele>3.501953125</ele>
        <time>2011-05-12T10:11:59Z</time>
      </trkpt>
      <trkpt lat="43.46206" lon="3.67119">
        <ele>3.501953125</ele>
        <time>2011-05-12T10:12:09Z</time>
      </trkpt>
      <trkpt lat="43.46231" lon="3.67152">
        <ele>3.021240234375</ele>
        <time>2011-05-12T10:12:19Z</time>
      </trkpt>
      <trkpt lat="43.46254" lon="3.67181">
        <ele>2.5406494140625</ele>
        <time>2011-05-12T10:12:28Z</time>
      </trkpt>
      <trkpt lat="43.46281" lon="3.67218">
        <ele>3.021240234375</ele>
        <time>2011-05-12T10:12:38Z</time>
      </trkpt>
      <trkpt lat="43.46311" lon="3.67256">
        <ele>3.501953125</ele>
        <time>2011-05-12T10:12:48Z</time>
      </trkpt>
      <trkpt lat="43.46337" lon="3.6729">
        <ele>2.5406494140625</ele>
        <time>2011-05-12T10:12:57Z</time>
      </trkpt>
      <trkpt lat="43.46355" lon="3.67312">
        <ele>2.5406494140625</ele>
        <time>2011-05-12T10:13:03Z</time>
      </trkpt>
      <trkpt lat="43.46373" lon="3.67337">
        <ele>3.021240234375</ele>
        <time>2011-05-12T10:13:10Z</time>
      </trkpt>
      <trkpt lat="43.46384" lon="3.67352">
        <ele>3.021240234375</ele>
        <time>2011-05-12T10:13:14Z</time>
      </trkpt>
      <trkpt lat="43.464" lon="3.67371">
        <ele>3.021240234375</ele>
        <time>2011-05-12T10:13:19Z</time>
      </trkpt>
      <trkpt lat="43.46417" lon="3.67394">
        <ele>2.5406494140625</ele>
        <time>2011-05-12T10:13:25Z</time>
      </trkpt>
      <trkpt lat="43.46441" lon="3.67424">
        <ele>3.501953125</ele>
        <time>2011-05-12T10:13:33Z</time>
      </trkpt>
      <trkpt lat="43.46475" lon="3.67467">
        <ele>3.021240234375</ele>
        <time>2011-05-12T10:13:44Z</time>
      </trkpt>
      <trkpt lat="43.46495" lon="3.67496">
        <ele>3.501953125</ele>
        <time>2011-05-12T10:13:51Z</time>
      </trkpt>
      <trkpt lat="43.46507" lon="3.67511">
        <ele>3.501953125</ele>
        <time>2011-05-12T10:13:55Z</time>
      </trkpt>
      <trkpt lat="43.46513" lon="3.6752">
        <ele>3.501953125</ele>
        <time>2011-05-12T10:13:57Z</time>
      </trkpt>
      <trkpt lat="43.4654" lon="3.67557">
        <ele>3.982666015625</ele>
        <time>2011-05-12T10:14:06Z</time>
      </trkpt>
      <trkpt lat="43.46567" lon="3.6759">
        <ele>3.982666015625</ele>
        <time>2011-05-12T10:14:15Z</time>
      </trkpt>
      <trkpt lat="43.46587" lon="3.67617">
        <ele>3.021240234375</ele>
        <time>2011-05-12T10:14:22Z</time>
      </trkpt>
      <trkpt lat="43.46607" lon="3.67646">
        <ele>3.021240234375</ele>
        <time>2011-05-12T10:14:29Z</time>
      </trkpt>
      <trkpt lat="43.46626" lon="3.67668">
        <ele>3.501953125</ele>
        <time>2011-05-12T10:14:35Z</time>
      </trkpt>
      <trkpt lat="43.46647" lon="3.67694">
        <ele>3.982666015625</ele>
        <time>2011-05-12T10:14:42Z</time>
      </trkpt>
      <trkpt lat="43.46664" lon="3.67718">
        <ele>4.4632568359375</ele>
        <time>2011-05-12T10:14:48Z</time>
      </trkpt>
      <trkpt lat="43.46688" lon="3.67749">
        <ele>3.501953125</ele>
        <time>2011-05-12T10:14:56Z</time>
      </trkpt>
      <trkpt lat="43.46716" lon="3.67787">
        <ele>3.501953125</ele>
        <time>2011-05-12T10:15:05Z</time>
      </trkpt>
      <trkpt lat="43.46733" lon="3.67811">
        <ele>4.94384765625</ele>
        <time>2011-05-12T10:15:11Z</time>
      </trkpt>
      <trkpt lat="43.46742" lon="3.67823">
        <ele>4.4632568359375</ele>
        <time>2011-05-12T10:15:14Z</time>
      </trkpt>
      <trkpt lat="43.46772" lon="3.67859">
        <ele>4.4632568359375</ele>
        <time>2011-05-12T10:15:23Z</time>
      </trkpt>
      <trkpt lat="43.4679" lon="3.67883">
        <ele>3.982666015625</ele>
        <time>2011-05-12T10:15:29Z</time>
      </trkpt>
      <trkpt lat="43.46806" lon="3.67902">
        <ele>4.4632568359375</ele>
        <time>2011-05-12T10:15:34Z</time>
      </trkpt>
      <trkpt lat="43.46825" lon="3.67925">
        <ele>5.424560546875</ele>
        <time>2011-05-12T10:15:40Z</time>
      </trkpt>
      <trkpt lat="43.46847" lon="3.67951">
        <ele>5.424560546875</ele>
        <time>2011-05-12T10:15:47Z</time>
      </trkpt>
      <trkpt lat="43.46861" lon="3.67971">
        <ele>6.3858642578125</ele>
        <time>2011-05-12T10:15:52Z</time>
      </trkpt>
      <trkpt lat="43.46873" lon="3.6799">
        <ele>5.9052734375</ele>
        <time>2011-05-12T10:15:57Z</time>
      </trkpt>
      <trkpt lat="43.46885" lon="3.68002">
        <ele>6.3858642578125</ele>
        <time>2011-05-12T10:16:01Z</time>
      </trkpt>
      <trkpt lat="43.46893" lon="3.68015">
        <ele>6.866455078125</ele>
        <time>2011-05-12T10:16:05Z</time>
      </trkpt>
      <trkpt lat="43.46907" lon="3.68032">
        <ele>5.9052734375</ele>
        <time>2011-05-12T10:16:10Z</time>
      </trkpt>
      <trkpt lat="43.46928" lon="3.68061">
        <ele>5.9052734375</ele>
        <time>2011-05-12T10:16:17Z</time>
      </trkpt>
      <trkpt lat="43.46951" lon="3.68094">
        <ele>5.9052734375</ele>
        <time>2011-05-12T10:16:25Z</time>
      </trkpt>
      <trkpt lat="43.46972" lon="3.68131">
        <ele>6.3858642578125</ele>
        <time>2011-05-12T10:16:33Z</time>
      </trkpt>
      <trkpt lat="43.46998" lon="3.68191">
        <ele>6.3858642578125</ele>
        <time>2011-05-12T10:16:45Z</time>
      </trkpt>
      <trkpt lat="43.47008" lon="3.68235">
        <ele>7.827880859375</ele>
        <time>2011-05-12T10:16:53Z</time>
      </trkpt>
      <trkpt lat="43.47015" lon="3.68276">
        <ele>6.866455078125</ele>
        <time>2011-05-12T10:17:01Z</time>
      </trkpt>
      <trkpt lat="43.47018" lon="3.68308">
        <ele>8.30859375</ele>
        <time>2011-05-12T10:17:08Z</time>
      </trkpt>
      <trkpt lat="43.4702" lon="3.68347">
        <ele>9.2698974609375</ele>
        <time>2011-05-12T10:17:15Z</time>
      </trkpt>
      <trkpt lat="43.47017" lon="3.68391">
        <ele>8.7891845703125</ele>
        <time>2011-05-12T10:17:23Z</time>
      </trkpt>
      <trkpt lat="43.47012" lon="3.68451">
        <ele>9.2698974609375</ele>
        <time>2011-05-12T10:17:34Z</time>
      </trkpt>
      <trkpt lat="43.47007" lon="3.68494">
        <ele>9.7506103515625</ele>
        <time>2011-05-12T10:17:42Z</time>
      </trkpt>
      <trkpt lat="43.47003" lon="3.68538">
        <ele>9.7506103515625</ele>
        <time>2011-05-12T10:17:50Z</time>
      </trkpt>
      <trkpt lat="43.46999" lon="3.68571">
        <ele>8.7891845703125</ele>
        <time>2011-05-12T10:17:57Z</time>
      </trkpt>
      <trkpt lat="43.46993" lon="3.68607">
        <ele>9.7506103515625</ele>
        <time>2011-05-12T10:18:04Z</time>
      </trkpt>
      <trkpt lat="43.46983" lon="3.68647">
        <ele>10.231201171875</ele>
        <time>2011-05-12T10:18:11Z</time>
      </trkpt>
      <trkpt lat="43.4697" lon="3.68687">
        <ele>10.711791992188</ele>
        <time>2011-05-12T10:18:19Z</time>
      </trkpt>
      <trkpt lat="43.46955" lon="3.68722">
        <ele>9.7506103515625</ele>
        <time>2011-05-12T10:18:27Z</time>
      </trkpt>
      <trkpt lat="43.46953" lon="3.68728">
        <ele>9.7506103515625</ele>
        <time>2011-05-12T10:18:30Z</time>
      </trkpt>
      <trkpt lat="43.46953" lon="3.68728">
        <ele>10.231201171875</ele>
        <time>2011-05-12T10:18:31Z</time>
      </trkpt>
      <trkpt lat="43.46953" lon="3.68729">
        <ele>9.2698974609375</ele>
        <time>2011-05-12T10:18:34Z</time>
      </trkpt>
      <trkpt lat="43.4695" lon="3.68733">
        <ele>10.231201171875</ele>
        <time>2011-05-12T10:18:36Z</time>
      </trkpt>
      <trkpt lat="43.4695" lon="3.68734">
        <ele>9.2698974609375</ele>
        <time>2011-05-12T10:18:38Z</time>
      </trkpt>
      <trkpt lat="43.4695" lon="3.68733">
        <ele>9.7506103515625</ele>
        <time>2011-05-12T10:18:56Z</time>
      </trkpt>
      <trkpt lat="43.46951" lon="3.68727">
        <ele>9.7506103515625</ele>
        <time>2011-05-12T10:18:59Z</time>
      </trkpt>
      <trkpt lat="43.46954" lon="3.68723">
        <ele>9.7506103515625</ele>
        <time>2011-05-12T10:19:05Z</time>
      </trkpt>
      <trkpt lat="43.46954" lon="3.68723">
        <ele>9.7506103515625</ele>
        <time>2011-05-12T10:19:09Z</time>
      </trkpt>
      <trkpt lat="43.46953" lon="3.68723">
        <ele>9.7506103515625</ele>
        <time>2011-05-12T10:19:10Z</time>
      </trkpt>
      <trkpt lat="43.46949" lon="3.68727">
        <ele>9.7506103515625</ele>
        <time>2011-05-12T10:19:15Z</time>
      </trkpt>
      <trkpt lat="43.46949" lon="3.68728">
        <ele>10.231201171875</ele>
        <time>2011-05-12T10:19:29Z</time>
      </trkpt>
      <trkpt lat="43.46947" lon="3.68735">
        <ele>9.7506103515625</ele>
        <time>2011-05-12T10:19:32Z</time>
      </trkpt>
      <trkpt lat="43.46943" lon="3.6874">
        <ele>10.231201171875</ele>
        <time>2011-05-12T10:19:35Z</time>
      </trkpt>
      <trkpt lat="43.46936" lon="3.68758">
        <ele>9.7506103515625</ele>
        <time>2011-05-12T10:19:44Z</time>
      </trkpt>
      <trkpt lat="43.46927" lon="3.68776">
        <ele>9.2698974609375</ele>
        <time>2011-05-12T10:19:50Z</time>
      </trkpt>
      <trkpt lat="43.46917" lon="3.68798">
        <ele>9.2698974609375</ele>
        <time>2011-05-12T10:19:56Z</time>
      </trkpt>
      <trkpt lat="43.469" lon="3.68837">
        <ele>9.7506103515625</ele>
        <time>2011-05-12T10:20:05Z</time>
      </trkpt>
      <trkpt lat="43.46888" lon="3.68861">
        <ele>8.7891845703125</ele>
        <time>2011-05-12T10:20:12Z</time>
      </trkpt>
      <trkpt lat="43.46887" lon="3.68864">
        <ele>9.2698974609375</ele>
        <time>2011-05-12T10:20:15Z</time>
      </trkpt>
      <trkpt lat="43.46886" lon="3.68865">
        <ele>9.2698974609375</ele>
        <time>2011-05-12T10:20:18Z</time>
      </trkpt>
      <trkpt lat="43.46882" lon="3.68872">
        <ele>9.2698974609375</ele>
        <time>2011-05-12T10:20:23Z</time>
      </trkpt>
      <trkpt lat="43.46882" lon="3.68872">
        <ele>9.2698974609375</ele>
        <time>2011-05-12T10:20:24Z</time>
      </trkpt>
      <trkpt lat="43.46882" lon="3.68872">
        <ele>9.2698974609375</ele>
        <time>2011-05-12T10:20:36Z</time>
      </trkpt>
      <trkpt lat="43.46874" lon="3.68883">
        <ele>9.7506103515625</ele>
        <time>2011-05-12T10:20:40Z</time>
      </trkpt>
      <trkpt lat="43.46856" lon="3.68911">
        <ele>8.7891845703125</ele>
        <time>2011-05-12T10:20:48Z</time>
      </trkpt>
      <trkpt lat="43.46834" lon="3.6894">
        <ele>8.30859375</ele>
        <time>2011-05-12T10:20:57Z</time>
      </trkpt>
      <trkpt lat="43.46814" lon="3.68961">
        <ele>8.7891845703125</ele>
        <time>2011-05-12T10:21:04Z</time>
      </trkpt>
      <trkpt lat="43.46788" lon="3.68985">
        <ele>8.30859375</ele>
        <time>2011-05-12T10:21:12Z</time>
      </trkpt>
      <trkpt lat="43.46767" lon="3.68997">
        <ele>9.2698974609375</ele>
        <time>2011-05-12T10:21:18Z</time>
      </trkpt>
      <trkpt lat="43.46745" lon="3.69008">
        <ele>10.231201171875</ele>
        <time>2011-05-12T10:21:25Z</time>
      </trkpt>
      <trkpt lat="43.46714" lon="3.69022">
        <ele>10.711791992188</ele>
        <time>2011-05-12T10:21:34Z</time>
      </trkpt>
      <trkpt lat="43.46698" lon="3.69029">
        <ele>12.15380859375</ele>
        <time>2011-05-12T10:21:40Z</time>
      </trkpt>
      <trkpt lat="43.46686" lon="3.69035">
        <ele>12.634399414062</ele>
        <time>2011-05-12T10:21:45Z</time>
      </trkpt>
      <trkpt lat="43.46678" lon="3.69036">
        <ele>12.634399414062</ele>
        <time>2011-05-12T10:21:48Z</time>
      </trkpt>
      <trkpt lat="43.46664" lon="3.69035">
        <ele>12.634399414062</ele>
        <time>2011-05-12T10:21:53Z</time>
      </trkpt>
      <trkpt lat="43.46628" lon="3.69026">
        <ele>13.115112304688</ele>
        <time>2011-05-12T10:22:04Z</time>
      </trkpt>
      <trkpt lat="43.46602" lon="3.69018">
        <ele>13.595825195312</ele>
        <time>2011-05-12T10:22:12Z</time>
      </trkpt>
      <trkpt lat="43.46573" lon="3.69005">
        <ele>14.076416015625</ele>
        <time>2011-05-12T10:22:21Z</time>
      </trkpt>
      <trkpt lat="43.46548" lon="3.68993">
        <ele>13.595825195312</ele>
        <time>2011-05-12T10:22:29Z</time>
      </trkpt>
      <trkpt lat="43.4652" lon="3.6898">
        <ele>14.076416015625</ele>
        <time>2011-05-12T10:22:38Z</time>
      </trkpt>
      <trkpt lat="43.46514" lon="3.68978">
        <ele>13.595825195312</ele>
        <time>2011-05-12T10:22:40Z</time>
      </trkpt>
      <trkpt lat="43.46498" lon="3.68979">
        <ele>13.595825195312</ele>
        <time>2011-05-12T10:22:46Z</time>
      </trkpt>
      <trkpt lat="43.46485" lon="3.68983">
        <ele>13.595825195312</ele>
        <time>2011-05-12T10:22:51Z</time>
      </trkpt>
      <trkpt lat="43.4646" lon="3.68972">
        <ele>14.076416015625</ele>
        <time>2011-05-12T10:22:59Z</time>
      </trkpt>
      <trkpt lat="43.46431" lon="3.68957">
        <ele>13.595825195312</ele>
        <time>2011-05-12T10:23:08Z</time>
      </trkpt>
      <trkpt lat="43.46425" lon="3.68943">
        <ele>13.595825195312</ele>
        <time>2011-05-12T10:23:12Z</time>
      </trkpt>
      <trkpt lat="43.46424" lon="3.68939">
        <ele>13.115112304688</ele>
        <time>2011-05-12T10:23:13Z</time>
      </trkpt>
      <trkpt lat="43.46415" lon="3.68933">
        <ele>13.115112304688</ele>
        <time>2011-05-12T10:23:18Z</time>
      </trkpt>
      <trkpt lat="43.46395" lon="3.68936">
        <ele>13.595825195312</ele>
        <time>2011-05-12T10:23:25Z</time>
      </trkpt>
      <trkpt lat="43.46388" lon="3.68934">
        <ele>14.076416015625</ele>
        <time>2011-05-12T10:23:28Z</time>
      </trkpt>
      <trkpt lat="43.46374" lon="3.68927">
        <ele>14.076416015625</ele>
        <time>2011-05-12T10:23:33Z</time>
      </trkpt>
      <trkpt lat="43.46343" lon="3.68915">
        <ele>13.595825195312</ele>
        <time>2011-05-12T10:23:42Z</time>
      </trkpt>
      <trkpt lat="43.46304" lon="3.689">
        <ele>14.076416015625</ele>
        <time>2011-05-12T10:23:53Z</time>
      </trkpt>
      <trkpt lat="43.46275" lon="3.68889">
        <ele>14.557006835938</ele>
        <time>2011-05-12T10:24:01Z</time>
      </trkpt>
      <trkpt lat="43.46264" lon="3.68883">
        <ele>13.115112304688</ele>
        <time>2011-05-12T10:24:04Z</time>
      </trkpt>
      <trkpt lat="43.46226" lon="3.68868">
        <ele>13.595825195312</ele>
        <time>2011-05-12T10:24:14Z</time>
      </trkpt>
      <trkpt lat="43.46183" lon="3.68852">
        <ele>13.595825195312</ele>
        <time>2011-05-12T10:24:25Z</time>
      </trkpt>
      <trkpt lat="43.46157" lon="3.68842">
        <ele>14.076416015625</ele>
        <time>2011-05-12T10:24:32Z</time>
      </trkpt>
      <trkpt lat="43.46138" lon="3.68837">
        <ele>13.115112304688</ele>
        <time>2011-05-12T10:24:37Z</time>
      </trkpt>
      <trkpt lat="43.46113" lon="3.68834">
        <ele>13.595825195312</ele>
        <time>2011-05-12T10:24:44Z</time>
      </trkpt>
      <trkpt lat="43.46092" lon="3.68832">
        <ele>14.076416015625</ele>
        <time>2011-05-12T10:24:50Z</time>
      </trkpt>
      <trkpt lat="43.4606" lon="3.68829">
        <ele>15.037719726562</ele>
        <time>2011-05-12T10:24:59Z</time>
      </trkpt>
      <trkpt lat="43.46046" lon="3.68827">
        <ele>14.076416015625</ele>
        <time>2011-05-12T10:25:03Z</time>
      </trkpt>
      <trkpt lat="43.46011" lon="3.68833">
        <ele>13.595825195312</ele>
        <time>2011-05-12T10:25:12Z</time>
      </trkpt>
      <trkpt lat="43.45991" lon="3.68839">
        <ele>12.634399414062</ele>
        <time>2011-05-12T10:25:17Z</time>
      </trkpt>
      <trkpt lat="43.45974" lon="3.68844">
        <ele>12.634399414062</ele>
        <time>2011-05-12T10:25:22Z</time>
      </trkpt>
      <trkpt lat="43.45958" lon="3.68853">
        <ele>13.115112304688</ele>
        <time>2011-05-12T10:25:27Z</time>
      </trkpt>
      <trkpt lat="43.45948" lon="3.68856">
        <ele>11.673217773438</ele>
        <time>2011-05-12T10:25:32Z</time>
      </trkpt>
      <trkpt lat="43.45934" lon="3.68855">
        <ele>11.673217773438</ele>
        <time>2011-05-12T10:25:38Z</time>
      </trkpt>
      <trkpt lat="43.45913" lon="3.68866">
        <ele>11.192504882812</ele>
        <time>2011-05-12T10:25:45Z</time>
      </trkpt>
      <trkpt lat="43.45898" lon="3.68867">
        <ele>11.192504882812</ele>
        <time>2011-05-12T10:25:49Z</time>
      </trkpt>
      <trkpt lat="43.45866" lon="3.68878">
        <ele>11.192504882812</ele>
        <time>2011-05-12T10:25:57Z</time>
      </trkpt>
      <trkpt lat="43.45831" lon="3.68891">
        <ele>11.192504882812</ele>
        <time>2011-05-12T10:26:05Z</time>
      </trkpt>
      <trkpt lat="43.4579" lon="3.68905">
        <ele>11.192504882812</ele>
        <time>2011-05-12T10:26:14Z</time>
      </trkpt>
      <trkpt lat="43.45745" lon="3.6892">
        <ele>9.7506103515625</ele>
        <time>2011-05-12T10:26:24Z</time>
      </trkpt>
      <trkpt lat="43.45717" lon="3.68932">
        <ele>9.7506103515625</ele>
        <time>2011-05-12T10:26:31Z</time>
      </trkpt>
      <trkpt lat="43.45711" lon="3.68934">
        <ele>9.2698974609375</ele>
        <time>2011-05-12T10:26:36Z</time>
      </trkpt>
      <trkpt lat="43.45701" lon="3.68934">
        <ele>9.2698974609375</ele>
        <time>2011-05-12T10:26:47Z</time>
      </trkpt>
      <trkpt lat="43.45701" lon="3.68934">
        <ele>9.7506103515625</ele>
        <time>2011-05-12T10:26:48Z</time>
      </trkpt>
      <trkpt lat="43.45702" lon="3.68935">
        <ele>9.7506103515625</ele>
        <time>2011-05-12T10:26:58Z</time>
      </trkpt>
      <trkpt lat="43.457" lon="3.68937">
        <ele>10.231201171875</ele>
        <time>2011-05-12T10:26:59Z</time>
      </trkpt>
      <trkpt lat="43.45692" lon="3.6894">
        <ele>9.2698974609375</ele>
        <time>2011-05-12T10:27:04Z</time>
      </trkpt>
      <trkpt lat="43.45681" lon="3.68944">
        <ele>10.231201171875</ele>
        <time>2011-05-12T10:27:10Z</time>
      </trkpt>
      <trkpt lat="43.4566" lon="3.68954">
        <ele>9.7506103515625</ele>
        <time>2011-05-12T10:27:17Z</time>
      </trkpt>
      <trkpt lat="43.45633" lon="3.68964">
        <ele>9.7506103515625</ele>
        <time>2011-05-12T10:27:25Z</time>
      </trkpt>
      <trkpt lat="43.45607" lon="3.68973">
        <ele>9.7506103515625</ele>
        <time>2011-05-12T10:27:33Z</time>
      </trkpt>
      <trkpt lat="43.45583" lon="3.68981">
        <ele>9.7506103515625</ele>
        <time>2011-05-12T10:27:40Z</time>
      </trkpt>
      <trkpt lat="43.45553" lon="3.68992">
        <ele>9.2698974609375</ele>
        <time>2011-05-12T10:27:49Z</time>
      </trkpt>
      <trkpt lat="43.45519" lon="3.69003">
        <ele>9.2698974609375</ele>
        <time>2011-05-12T10:27:59Z</time>
      </trkpt>
      <trkpt lat="43.45493" lon="3.69012">
        <ele>8.7891845703125</ele>
        <time>2011-05-12T10:28:07Z</time>
      </trkpt>
      <trkpt lat="43.45468" lon="3.69021">
        <ele>9.2698974609375</ele>
        <time>2011-05-12T10:28:15Z</time>
      </trkpt>
      <trkpt lat="43.4544" lon="3.69032">
        <ele>8.7891845703125</ele>
        <time>2011-05-12T10:28:24Z</time>
      </trkpt>
      <trkpt lat="43.45411" lon="3.69041">
        <ele>8.7891845703125</ele>
        <time>2011-05-12T10:28:33Z</time>
      </trkpt>
      <trkpt lat="43.45381" lon="3.69053">
        <ele>8.30859375</ele>
        <time>2011-05-12T10:28:43Z</time>
      </trkpt>
      <trkpt lat="43.45367" lon="3.6906">
        <ele>8.7891845703125</ele>
        <time>2011-05-12T10:28:49Z</time>
      </trkpt>
      <trkpt lat="43.45358" lon="3.69059">
        <ele>8.7891845703125</ele>
        <time>2011-05-12T10:28:55Z</time>
      </trkpt>
      <trkpt lat="43.45359" lon="3.69059">
        <ele>8.30859375</ele>
        <time>2011-05-12T10:28:56Z</time>
      </trkpt>
      <trkpt lat="43.45351" lon="3.69051">
        <ele>8.30859375</ele>
        <time>2011-05-12T10:29:07Z</time>
      </trkpt>
      <trkpt lat="43.45319" lon="3.69074">
        <ele>8.7891845703125</ele>
        <time>2011-05-12T10:29:10Z</time>
      </trkpt>
      <trkpt lat="43.45298" lon="3.69087">
        <ele>8.7891845703125</ele>
        <time>2011-05-12T10:29:18Z</time>
      </trkpt>
      <trkpt lat="43.45273" lon="3.69088">
        <ele>8.30859375</ele>
        <time>2011-05-12T10:29:26Z</time>
      </trkpt>
      <trkpt lat="43.45248" lon="3.69092">
        <ele>8.30859375</ele>
        <time>2011-05-12T10:29:35Z</time>
      </trkpt>
      <trkpt lat="43.45234" lon="3.691">
        <ele>8.30859375</ele>
        <time>2011-05-12T10:29:41Z</time>
      </trkpt>
      <trkpt lat="43.45215" lon="3.6911">
        <ele>8.7891845703125</ele>
        <time>2011-05-12T10:29:49Z</time>
      </trkpt>
      <trkpt lat="43.45194" lon="3.69115">
        <ele>8.30859375</ele>
        <time>2011-05-12T10:29:56Z</time>
      </trkpt>
      <trkpt lat="43.4518" lon="3.69124">
        <ele>7.827880859375</ele>
        <time>2011-05-12T10:30:01Z</time>
      </trkpt>
      <trkpt lat="43.45161" lon="3.6914">
        <ele>7.827880859375</ele>
        <time>2011-05-12T10:30:09Z</time>
      </trkpt>
      <trkpt lat="43.45147" lon="3.69149">
        <ele>8.30859375</ele>
        <time>2011-05-12T10:30:14Z</time>
      </trkpt>
      <trkpt lat="43.45131" lon="3.6916">
        <ele>8.7891845703125</ele>
        <time>2011-05-12T10:30:20Z</time>
      </trkpt>
      <trkpt lat="43.45115" lon="3.69164">
        <ele>8.7891845703125</ele>
        <time>2011-05-12T10:30:25Z</time>
      </trkpt>
      <trkpt lat="43.45099" lon="3.69172">
        <ele>8.7891845703125</ele>
        <time>2011-05-12T10:30:31Z</time>
      </trkpt>
      <trkpt lat="43.45083" lon="3.6918">
        <ele>8.30859375</ele>
        <time>2011-05-12T10:30:37Z</time>
      </trkpt>
      <trkpt lat="43.45066" lon="3.69197">
        <ele>8.7891845703125</ele>
        <time>2011-05-12T10:30:43Z</time>
      </trkpt>
      <trkpt lat="43.45043" lon="3.69209">
        <ele>8.30859375</ele>
        <time>2011-05-12T10:30:50Z</time>
      </trkpt>
      <trkpt lat="43.45022" lon="3.69224">
        <ele>7.827880859375</ele>
        <time>2011-05-12T10:30:58Z</time>
      </trkpt>
      <trkpt lat="43.45005" lon="3.69232">
        <ele>8.30859375</ele>
        <time>2011-05-12T10:31:04Z</time>
      </trkpt>
      <trkpt lat="43.44987" lon="3.69237">
        <ele>7.827880859375</ele>
        <time>2011-05-12T10:31:10Z</time>
      </trkpt>
      <trkpt lat="43.44967" lon="3.69251">
        <ele>8.7891845703125</ele>
        <time>2011-05-12T10:31:18Z</time>
      </trkpt>
      <trkpt lat="43.44948" lon="3.69262">
        <ele>8.30859375</ele>
        <time>2011-05-12T10:31:25Z</time>
      </trkpt>
      <trkpt lat="43.4492" lon="3.69277">
        <ele>9.2698974609375</ele>
        <time>2011-05-12T10:31:34Z</time>
      </trkpt>
      <trkpt lat="43.44892" lon="3.69292">
        <ele>8.30859375</ele>
        <time>2011-05-12T10:31:43Z</time>
      </trkpt>
      <trkpt lat="43.44869" lon="3.69306">
        <ele>7.827880859375</ele>
        <time>2011-05-12T10:31:51Z</time>
      </trkpt>
      <trkpt lat="43.44843" lon="3.69322">
        <ele>7.827880859375</ele>
        <time>2011-05-12T10:31:59Z</time>
      </trkpt>
      <trkpt lat="43.44825" lon="3.69326">
        <ele>7.34716796875</ele>
        <time>2011-05-12T10:32:05Z</time>
      </trkpt>
      <trkpt lat="43.44812" lon="3.69315">
        <ele>7.827880859375</ele>
        <time>2011-05-12T10:32:10Z</time>
      </trkpt>
      <trkpt lat="43.44793" lon="3.69314">
        <ele>7.827880859375</ele>
        <time>2011-05-12T10:32:16Z</time>
      </trkpt>
      <trkpt lat="43.44774" lon="3.6932">
        <ele>8.30859375</ele>
        <time>2011-05-12T10:32:23Z</time>
      </trkpt>
      <trkpt lat="43.44761" lon="3.69325">
        <ele>8.30859375</ele>
        <time>2011-05-12T10:32:28Z</time>
      </trkpt>
      <trkpt lat="43.44754" lon="3.6933">
        <ele>7.827880859375</ele>
        <time>2011-05-12T10:32:33Z</time>
      </trkpt>
      <trkpt lat="43.44753" lon="3.69329">
        <ele>7.34716796875</ele>
        <time>2011-05-12T10:32:35Z</time>
      </trkpt>
      <trkpt lat="43.44745" lon="3.69309">
        <ele>6.866455078125</ele>
        <time>2011-05-12T10:32:42Z</time>
      </trkpt>
      <trkpt lat="43.44742" lon="3.69309">
        <ele>7.34716796875</ele>
        <time>2011-05-12T10:32:43Z</time>
      </trkpt>
      <trkpt lat="43.4472" lon="3.69323">
        <ele>6.3858642578125</ele>
        <time>2011-05-12T10:32:50Z</time>
      </trkpt>
      <trkpt lat="43.44697" lon="3.69336">
        <ele>7.827880859375</ele>
        <time>2011-05-12T10:32:57Z</time>
      </trkpt>
      <trkpt lat="43.44666" lon="3.69351">
        <ele>7.827880859375</ele>
        <time>2011-05-12T10:33:05Z</time>
      </trkpt>
      <trkpt lat="43.4464" lon="3.69363">
        <ele>7.827880859375</ele>
        <time>2011-05-12T10:33:12Z</time>
      </trkpt>
      <trkpt lat="43.44619" lon="3.69358">
        <ele>7.827880859375</ele>
        <time>2011-05-12T10:33:18Z</time>
      </trkpt>
      <trkpt lat="43.446" lon="3.69362">
        <ele>8.7891845703125</ele>
        <time>2011-05-12T10:33:23Z</time>
      </trkpt>
      <trkpt lat="43.44586" lon="3.69384">
        <ele>8.7891845703125</ele>
        <time>2011-05-12T10:33:29Z</time>
      </trkpt>
      <trkpt lat="43.44584" lon="3.69393">
        <ele>8.30859375</ele>
        <time>2011-05-12T10:33:31Z</time>
      </trkpt>
      <trkpt lat="43.44583" lon="3.69404">
        <ele>8.7891845703125</ele>
        <time>2011-05-12T10:33:34Z</time>
      </trkpt>
      <trkpt lat="43.44571" lon="3.69411">
        <ele>7.34716796875</ele>
        <time>2011-05-12T10:33:38Z</time>
      </trkpt>
      <trkpt lat="43.44567" lon="3.6941">
        <ele>6.866455078125</ele>
        <time>2011-05-12T10:33:39Z</time>
      </trkpt>
      <trkpt lat="43.44554" lon="3.6941">
        <ele>5.9052734375</ele>
        <time>2011-05-12T10:33:42Z</time>
      </trkpt>
      <trkpt lat="43.44539" lon="3.69418">
        <ele>5.9052734375</ele>
        <time>2011-05-12T10:33:46Z</time>
      </trkpt>
      <trkpt lat="43.44504" lon="3.69435">
        <ele>5.9052734375</ele>
        <time>2011-05-12T10:33:55Z</time>
      </trkpt>
      <trkpt lat="43.44469" lon="3.69457">
        <ele>5.9052734375</ele>
        <time>2011-05-12T10:34:05Z</time>
      </trkpt>
      <trkpt lat="43.44451" lon="3.69459">
        <ele>4.4632568359375</ele>
        <time>2011-05-12T10:34:10Z</time>
      </trkpt>
      <trkpt lat="43.44442" lon="3.69432">
        <ele>4.94384765625</ele>
        <time>2011-05-12T10:34:16Z</time>
      </trkpt>
      <trkpt lat="43.4443" lon="3.69394">
        <ele>4.94384765625</ele>
        <time>2011-05-12T10:34:24Z</time>
      </trkpt>
      <trkpt lat="43.44422" lon="3.69364">
        <ele>5.9052734375</ele>
        <time>2011-05-12T10:34:30Z</time>
      </trkpt>
      <trkpt lat="43.44416" lon="3.69333">
        <ele>6.3858642578125</ele>
        <time>2011-05-12T10:34:36Z</time>
      </trkpt>
      <trkpt lat="43.44408" lon="3.69301">
        <ele>7.34716796875</ele>
        <time>2011-05-12T10:34:43Z</time>
      </trkpt>
      <trkpt lat="43.4439" lon="3.6926">
        <ele>7.34716796875</ele>
        <time>2011-05-12T10:34:52Z</time>
      </trkpt>
      <trkpt lat="43.44377" lon="3.69251">
        <ele>8.7891845703125</ele>
        <time>2011-05-12T10:34:56Z</time>
      </trkpt>
      <trkpt lat="43.44353" lon="3.69258">
        <ele>6.866455078125</ele>
        <time>2011-05-12T10:35:02Z</time>
      </trkpt>
      <trkpt lat="43.44322" lon="3.69265">
        <ele>7.827880859375</ele>
        <time>2011-05-12T10:35:10Z</time>
      </trkpt>
      <trkpt lat="43.44312" lon="3.69251">
        <ele>6.866455078125</ele>
        <time>2011-05-12T10:35:14Z</time>
      </trkpt>
      <trkpt lat="43.44304" lon="3.69196">
        <ele>6.866455078125</ele>
        <time>2011-05-12T10:35:24Z</time>
      </trkpt>
      <trkpt lat="43.44302" lon="3.69175">
        <ele>6.866455078125</ele>
        <time>2011-05-12T10:35:28Z</time>
      </trkpt>
      <trkpt lat="43.44314" lon="3.69157">
        <ele>6.3858642578125</ele>
        <time>2011-05-12T10:35:33Z</time>
      </trkpt>
      <trkpt lat="43.44317" lon="3.69154">
        <ele>6.3858642578125</ele>
        <time>2011-05-12T10:35:34Z</time>
      </trkpt>
      <trkpt lat="43.44337" lon="3.69129">
        <ele>5.424560546875</ele>
        <time>2011-05-12T10:35:41Z</time>
      </trkpt>
      <trkpt lat="43.44334" lon="3.69111">
        <ele>5.9052734375</ele>
        <time>2011-05-12T10:35:45Z</time>
      </trkpt>
      <trkpt lat="43.44315" lon="3.69076">
        <ele>5.9052734375</ele>
        <time>2011-05-12T10:35:54Z</time>
      </trkpt>
      <trkpt lat="43.44305" lon="3.6906">
        <ele>5.9052734375</ele>
        <time>2011-05-12T10:36:00Z</time>
      </trkpt>
      <trkpt lat="43.44299" lon="3.69055">
        <ele>5.9052734375</ele>
        <time>2011-05-12T10:36:05Z</time>
      </trkpt>
      <trkpt lat="43.44292" lon="3.6904">
        <ele>5.9052734375</ele>
        <time>2011-05-12T10:36:11Z</time>
      </trkpt>
      <trkpt lat="43.44282" lon="3.69033">
        <ele>5.9052734375</ele>
        <time>2011-05-12T10:36:16Z</time>
      </trkpt>
      <trkpt lat="43.44281" lon="3.69033">
        <ele>6.3858642578125</ele>
        <time>2011-05-12T10:36:17Z</time>
      </trkpt>
    </trkseg>
  </trk>
</gpx>